Wetterdaten: Samstag, 11.11.2023
Datum Zeit Temp. Aussen Temp. o. S. Temp +5cm Feuchte Auss Luftdruck Regen Sonnenschein Regendauer Solar Windben Empfang
11.11.2023 00:00 6,0 C 5,6 C 2,2 C 97 % 998,6 hPa 0,0 l/m 0 min 0 min 0 W/m 3,2 km/h (1 Bft) 95,65 %
11.11.2023 00:02 6,0 C 5,6 C 2,2 C 97 % 998,7 hPa 0,0 l/m 0 min 0 min 0 W/m 6,4 km/h (2 Bft) 97,44 %
11.11.2023 00:04 6,0 C 5,6 C 2,2 C 97 % 998,7 hPa 0,0 l/m 0 min 0 min 0 W/m 3,2 km/h (1 Bft) 93,75 %
11.11.2023 00:08 6,1 C 5,6 C 2,8 C 97 % 998,8 hPa 0,0 l/m 0 min 0 min 0 W/m 6,4 km/h (2 Bft) 96,55 %
11.11.2023 00:09 6,1 C 5,6 C 2,8 C 97 % 998,9 hPa 0,0 l/m 0 min 0 min 0 W/m 0,0 km/h (0 Bft) 91,30 %
11.11.2023 00:10 6,1 C 5,6 C 2,8 C 97 % 998,9 hPa 0,0 l/m 0 min 0 min 0 W/m 6,4 km/h (2 Bft) 97,37 %
11.11.2023 00:14 6,1 C 5,6 C 2,8 C 97 % 998,8 hPa 0,0 l/m 0 min 0 min 0 W/m 3,2 km/h (1 Bft) 96,43 %
11.11.2023 00:16 6,1 C 5,6 C 2,8 C 97 % 998,9 hPa 0,0 l/m 0 min 0 min 0 W/m 0,0 km/h (0 Bft) 93,62 %
11.11.2023 00:18 6,1 C 5,6 C 2,8 C 97 % 999,0 hPa 0,0 l/m 0 min 0 min 0 W/m 0,0 km/h (0 Bft) 97,14 %
11.11.2023 00:24 6,2 C 5,6 C 2,8 C 97 % 999,0 hPa 0,0 l/m 0 min 0 min 0 W/m 0,0 km/h (0 Bft) 97,40 %
11.11.2023 00:25 6,2 C 5,6 C 2,8 C 97 % 999,0 hPa 0,0 l/m 0 min 0 min 0 W/m 3,2 km/h (1 Bft) 95,65 %
11.11.2023 00:30 6,2 C 5,6 C 2,8 C 97 % 999,1 hPa 0,0 l/m 0 min 0 min 0 W/m 3,2 km/h (1 Bft) 91,49 %
11.11.2023 00:32 6,2 C 5,6 C 2,8 C 97 % 999,1 hPa 0,0 l/m 0 min 0 min 0 W/m 3,2 km/h (1 Bft) 97,87 %
11.11.2023 00:34 6,2 C 5,6 C 2,8 C 97 % 999,1 hPa 0,0 l/m 0 min 0 min 0 W/m 0,0 km/h (0 Bft) 93,62 %
11.11.2023 00:36 6,2 C 5,6 C 2,8 C 97 % 999,1 hPa 0,0 l/m 0 min 0 min 0 W/m 0,0 km/h (0 Bft) 100,00 %
11.11.2023 00:42 6,3 C 5,6 C 2,8 C 97 % 999,2 hPa 0,0 l/m 0 min 0 min 0 W/m 0,0 km/h (0 Bft) 93,10 %
11.11.2023 00:43 6,3 C 5,6 C 2,8 C 97 % 999,2 hPa 0,0 l/m 0 min 0 min 0 W/m 0,0 km/h (0 Bft) 100,00 %
11.11.2023 00:45 6,3 C 5,6 C 2,8 C 97 % 999,3 hPa 0,0 l/m 0 min 0 min 0 W/m 3,2 km/h (1 Bft) 98,25 %
11.11.2023 00:48 6,4 C 5,6 C 2,8 C 97 % 999,3 hPa 0,0 l/m 0 min 0 min 0 W/m 0,0 km/h (0 Bft) 95,74 %
11.11.2023 00:50 6,4 C 5,6 C 2,8 C 97 % 999,3 hPa 0,0 l/m 0 min 0 min 0 W/m 3,2 km/h (1 Bft) 97,87 %
11.11.2023 00:52 6,4 C 5,6 C 2,8 C 97 % 999,3 hPa 0,0 l/m 0 min 0 min 0 W/m 3,2 km/h (1 Bft) 97,83 %
11.11.2023 00:54 6,4 C 5,6 C 3,3 C 97 % 999,3 hPa 0,0 l/m 0 min 0 min 0 W/m 0,0 km/h (0 Bft) 97,92 %
11.11.2023 00:56 6,4 C 6,1 C 3,3 C 97 % 999,3 hPa 0,0 l/m 0 min 0 min 0 W/m 3,2 km/h (1 Bft) 97,87 %
11.11.2023 00:58 6,5 C 6,1 C 3,3 C 98 % 999,3 hPa 0,0 l/m 0 min 0 min 0 W/m 6,4 km/h (2 Bft) 97,87 %
11.11.2023 01:00 6,5 C 6,1 C 3,3 C 98 % 999,3 hPa 0,0 l/m 0 min 0 min 0 W/m 6,4 km/h (2 Bft) 97,87 %
11.11.2023 01:02 6,5 C 6,1 C 3,3 C 98 % 999,3 hPa 0,0 l/m 0 min 0 min 0 W/m 6,4 km/h (2 Bft) 97,87 %
11.11.2023 01:04 6,6 C 6,1 C 3,3 C 98 % 999,3 hPa 0,0 l/m 0 min 0 min 0 W/m 0,0 km/h (0 Bft) 98,08 %
11.11.2023 01:08 6,6 C 6,1 C 3,3 C 98 % 999,3 hPa 0,0 l/m 0 min 0 min 0 W/m 3,2 km/h (1 Bft) 95,79 %
11.11.2023 01:09 6,6 C 6,1 C 3,3 C 98 % 999,3 hPa 0,0 l/m 0 min 0 min 0 W/m 0,0 km/h (0 Bft) 95,83 %
11.11.2023 01:10 6,6 C 6,1 C 3,3 C 98 % 999,3 hPa 0,0 l/m 0 min 0 min 0 W/m 3,2 km/h (1 Bft) 98,25 %
11.11.2023 01:14 6,7 C 6,1 C 3,3 C 98 % 999,3 hPa 0,0 l/m 0 min 0 min 0 W/m 6,4 km/h (2 Bft) 98,31 %
11.11.2023 01:16 6,7 C 6,1 C 3,3 C 98 % 999,4 hPa 0,0 l/m 0 min 0 min 0 W/m 6,4 km/h (2 Bft) 97,87 %
11.11.2023 01:18 6,7 C 6,1 C 3,3 C 98 % 999,4 hPa 0,0 l/m 0 min 0 min 0 W/m 6,4 km/h (2 Bft) 100,00 %
11.11.2023 01:20 6,7 C 6,1 C 3,3 C 98 % 999,4 hPa 0,0 l/m 0 min 0 min 0 W/m 6,4 km/h (2 Bft) 100,00 %
11.11.2023 01:22 6,8 C 6,1 C 3,3 C 98 % 999,4 hPa 0,0 l/m 0 min 0 min 0 W/m 6,4 km/h (2 Bft) 97,87 %
11.11.2023 01:24 6,8 C 6,1 C 3,3 C 98 % 999,4 hPa 0,0 l/m 0 min 0 min 0 W/m 9,7 km/h (2 Bft) 100,00 %
11.11.2023 01:26 6,8 C 6,1 C 3,3 C 98 % 999,4 hPa 0,0 l/m 0 min 0 min 0 W/m 9,7 km/h (2 Bft) 100,00 %
11.11.2023 01:28 6,8 C 6,1 C 3,3 C 98 % 999,5 hPa 0,0 l/m 0 min 0 min 0 W/m 16,1 km/h (3 Bft) 97,87 %
11.11.2023 01:30 6,8 C 6,1 C 3,3 C 98 % 999,5 hPa 0,0 l/m 0 min 0 min 0 W/m 6,4 km/h (2 Bft) 100,00 %
11.11.2023 01:32 6,8 C 6,1 C 3,3 C 98 % 999,6 hPa 0,0 l/m 0 min 0 min 0 W/m 12,9 km/h (3 Bft) 97,14 %
11.11.2023 01:34 6,9 C 6,1 C 3,3 C 98 % 999,6 hPa 0,0 l/m 0 min 0 min 0 W/m 3,2 km/h (1 Bft) 100,00 %
11.11.2023 01:36 6,9 C 6,1 C 3,3 C 98 % 999,7 hPa 0,0 l/m 0 min 0 min 0 W/m 6,4 km/h (2 Bft) 100,00 %
11.11.2023 01:38 6,9 C 6,1 C 3,3 C 98 % 999,7 hPa 0,0 l/m 0 min 0 min 0 W/m 6,4 km/h (2 Bft) 97,87 %
11.11.2023 01:40 6,9 C 6,1 C 3,3 C 98 % 999,7 hPa 0,0 l/m 0 min 0 min 0 W/m 6,4 km/h (2 Bft) 100,00 %
11.11.2023 01:42 6,9 C 6,1 C 3,3 C 98 % 999,8 hPa 0,0 l/m 0 min 0 min 0 W/m 6,4 km/h (2 Bft) 100,00 %
11.11.2023 01:44 6,9 C 6,1 C 3,3 C 98 % 999,8 hPa 0,0 l/m 0 min 0 min 0 W/m 12,9 km/h (3 Bft) 97,87 %
11.11.2023 01:46 6,9 C 6,1 C 3,3 C 98 % 999,8 hPa 0,0 l/m 0 min 0 min 0 W/m 6,4 km/h (2 Bft) 100,00 %
11.11.2023 01:48 6,9 C 6,1 C 3,3 C 98 % 999,9 hPa 0,0 l/m 0 min 0 min 0 W/m 6,4 km/h (2 Bft) 97,87 %
11.11.2023 01:50 6,9 C 6,1 C 3,3 C 98 % 999,9 hPa 0,0 l/m 0 min 0 min 0 W/m 9,7 km/h (2 Bft) 95,65 %
11.11.2023 01:52 6,9 C 6,1 C 3,3 C 98 % 1000,0 hPa 0,0 l/m 0 min 0 min 0 W/m 3,2 km/h (1 Bft) 95,74 %
11.11.2023 01:54 6,9 C 6,1 C 3,3 C 98 % 1000,0 hPa 0,0 l/m 0 min 0 min 0 W/m 9,7 km/h (2 Bft) 100,00 %
11.11.2023 01:56 6,9 C 6,1 C 3,3 C 98 % 1000,0 hPa 0,0 l/m 0 min 0 min 0 W/m 6,4 km/h (2 Bft) 95,74 %
11.11.2023 01:58 6,9 C 6,1 C 3,3 C 98 % 1000,0 hPa 0,0 l/m 0 min 0 min 0 W/m 6,4 km/h (2 Bft) 100,00 %
11.11.2023 02:00 6,9 C 6,1 C 3,3 C 98 % 1000,0 hPa 0,0 l/m 0 min 0 min 0 W/m 6,4 km/h (2 Bft) 100,00 %
11.11.2023 02:02 6,9 C 6,1 C 3,3 C 98 % 1000,1 hPa 0,0 l/m 0 min 0 min 0 W/m 12,9 km/h (3 Bft) 97,87 %
11.11.2023 02:04 6,9 C 6,1 C 3,3 C 98 % 1000,1 hPa 0,0 l/m 0 min 0 min 0 W/m 12,9 km/h (3 Bft) 97,78 %
11.11.2023 02:06 6,9 C 6,1 C 3,3 C 98 % 1000,1 hPa 0,0 l/m 0 min 0 min 0 W/m 3,2 km/h (1 Bft) 100,00 %
11.11.2023 02:08 6,9 C 6,1 C 3,3 C 98 % 1000,1 hPa 0,0 l/m 0 min 0 min 0 W/m 6,4 km/h (2 Bft) 97,14 %
11.11.2023 02:10 6,9 C 6,1 C 3,3 C 98 % 1000,1 hPa 0,0 l/m 0 min 0 min 0 W/m 3,2 km/h (1 Bft) 100,00 %
11.11.2023 02:17 6,9 C 6,1 C 3,3 C 98 % 1000,1 hPa 0,0 l/m 0 min 0 min 0 W/m 6,4 km/h (2 Bft) 100,00 %
11.11.2023 02:18 6,9 C 6,1 C 3,3 C 98 % 1000,1 hPa 0,0 l/m 0 min 0 min 0 W/m 6,4 km/h (2 Bft) 100,00 %
11.11.2023 02:20 6,8 C 6,1 C 3,3 C 98 % 1000,1 hPa 0,0 l/m 0 min 0 min 0 W/m 6,4 km/h (2 Bft) 97,87 %
11.11.2023 02:22 6,8 C 6,1 C 3,3 C 98 % 1000,1 hPa 0,0 l/m 0 min 0 min 0 W/m 3,2 km/h (1 Bft) 97,87 %
11.11.2023 02:24 6,8 C 6,1 C 3,3 C 98 % 1000,2 hPa 0,0 l/m 0 min 0 min 0 W/m 3,2 km/h (1 Bft) 97,87 %
11.11.2023 02:26 6,8 C 6,1 C 3,3 C 98 % 1000,2 hPa 0,0 l/m 0 min 0 min 0 W/m 6,4 km/h (2 Bft) 97,87 %
11.11.2023 02:28 6,8 C 6,1 C 3,3 C 98 % 1000,2 hPa 0,0 l/m 0 min 0 min 0 W/m 3,2 km/h (1 Bft) 97,87 %
11.11.2023 02:30 6,8 C 6,1 C 3,3 C 98 % 1000,3 hPa 0,0 l/m 0 min 0 min 0 W/m 6,4 km/h (2 Bft) 95,65 %
11.11.2023 02:32 6,7 C 6,1 C 3,3 C 98 % 1000,3 hPa 0,0 l/m 0 min 0 min 0 W/m 6,4 km/h (2 Bft) 97,87 %
11.11.2023 02:34 6,7 C 6,1 C 3,3 C 98 % 1000,4 hPa 0,0 l/m 0 min 0 min 0 W/m 6,4 km/h (2 Bft) 93,62 %
11.11.2023 02:36 6,7 C 6,1 C 3,3 C 98 % 1000,4 hPa 0,0 l/m 0 min 0 min 0 W/m 12,9 km/h (3 Bft) 91,49 %
11.11.2023 02:38 6,7 C 6,1 C 3,3 C 98 % 1000,5 hPa 0,0 l/m 0 min 0 min 0 W/m 12,9 km/h (3 Bft) 93,62 %
11.11.2023 02:40 6,6 C 6,1 C 3,3 C 98 % 1000,4 hPa 0,0 l/m 0 min 0 min 0 W/m 6,4 km/h (2 Bft) 95,65 %
11.11.2023 02:42 6,6 C 6,1 C 3,3 C 98 % 1000,5 hPa 0,0 l/m 0 min 0 min 0 W/m 6,4 km/h (2 Bft) 95,74 %
11.11.2023 02:44 6,6 C 6,1 C 3,3 C 98 % 1000,5 hPa 0,0 l/m 0 min 0 min 0 W/m 12,9 km/h (3 Bft) 95,74 %
11.11.2023 02:46 6,6 C 6,1 C 3,3 C 98 % 1000,6 hPa 0,0 l/m 0 min 0 min 0 W/m 12,9 km/h (3 Bft) 95,74 %
11.11.2023 02:48 6,6 C 5,6 C 3,3 C 98 % 1000,5 hPa 0,0 l/m 0 min 0 min 0 W/m 6,4 km/h (2 Bft) 93,62 %
11.11.2023 02:50 6,5 C 5,6 C 2,8 C 98 % 1000,5 hPa 0,0 l/m 0 min 0 min 0 W/m 6,4 km/h (2 Bft) 95,74 %
11.11.2023 02:52 6,5 C 5,6 C 2,8 C 98 % 1000,5 hPa 0,0 l/m 0 min 0 min 0 W/m 3,2 km/h (1 Bft) 93,48 %
11.11.2023 02:54 6,5 C 5,6 C 2,8 C 98 % 1000,6 hPa 0,0 l/m 0 min 0 min 0 W/m 9,7 km/h (2 Bft) 93,62 %
11.11.2023 02:56 6,5 C 5,6 C 2,8 C 98 % 1000,6 hPa 0,0 l/m 0 min 0 min 0 W/m 6,4 km/h (2 Bft) 95,74 %
11.11.2023 02:58 6,5 C 5,6 C 2,8 C 98 % 1000,6 hPa 0,0 l/m 0 min 0 min 0 W/m 6,4 km/h (2 Bft) 95,74 %
11.11.2023 03:00 6,5 C 5,6 C 2,8 C 98 % 1000,7 hPa 0,0 l/m 0 min 0 min 0 W/m 6,4 km/h (2 Bft) 97,87 %
11.11.2023 03:02 6,4 C 5,6 C 2,8 C 98 % 1000,8 hPa 0,0 l/m 0 min 0 min 0 W/m 9,7 km/h (2 Bft) 95,74 %
11.11.2023 03:04 6,4 C 5,6 C 2,8 C 98 % 1000,8 hPa 0,0 l/m 0 min 0 min 0 W/m 9,7 km/h (2 Bft) 94,23 %
11.11.2023 03:06 6,4 C 5,6 C 2,8 C 98 % 1000,8 hPa 0,0 l/m 0 min 0 min 0 W/m 6,4 km/h (2 Bft) 98,00 %
11.11.2023 03:08 6,5 C 5,6 C 2,8 C 98 % 1000,8 hPa 0,0 l/m 0 min 0 min 0 W/m 9,7 km/h (2 Bft) 97,87 %
11.11.2023 03:10 6,5 C 6,1 C 3,3 C 98 % 1000,8 hPa 0,0 l/m 0 min 0 min 0 W/m 6,4 km/h (2 Bft) 97,83 %
11.11.2023 03:12 6,5 C 6,1 C 3,3 C 98 % 1000,8 hPa 0,0 l/m 0 min 0 min 0 W/m 9,7 km/h (2 Bft) 97,87 %
11.11.2023 03:14 6,5 C 6,1 C 3,3 C 98 % 1000,8 hPa 0,0 l/m 0 min 0 min 0 W/m 9,7 km/h (2 Bft) 97,87 %
11.11.2023 03:16 6,5 C 6,1 C 2,8 C 98 % 1000,8 hPa 0,0 l/m 0 min 0 min 0 W/m 16,1 km/h (3 Bft) 95,74 %
11.11.2023 03:18 6,5 C 6,1 C 2,8 C 98 % 1000,8 hPa 0,0 l/m 0 min 0 min 0 W/m 9,7 km/h (2 Bft) 97,87 %
11.11.2023 03:20 6,5 C 6,1 C 2,8 C 98 % 1000,8 hPa 0,0 l/m 0 min 0 min 0 W/m 6,4 km/h (2 Bft) 95,74 %
11.11.2023 03:22 6,5 C 5,6 C 2,8 C 98 % 1000,8 hPa 0,0 l/m 0 min 0 min 0 W/m 6,4 km/h (2 Bft) 95,65 %
11.11.2023 03:24 6,4 C 5,6 C 2,8 C 98 % 1000,9 hPa 0,0 l/m 0 min 0 min 0 W/m 6,4 km/h (2 Bft) 95,83 %
11.11.2023 03:26 6,4 C 5,6 C 2,8 C 98 % 1000,9 hPa 0,0 l/m 0 min 0 min 0 W/m 6,4 km/h (2 Bft) 97,87 %
11.11.2023 03:28 6,4 C 5,6 C 2,8 C 98 % 1001,0 hPa 0,0 l/m 0 min 0 min 0 W/m 6,4 km/h (2 Bft) 97,87 %
11.11.2023 03:30 6,4 C 5,6 C 2,8 C 98 % 1001,0 hPa 0,0 l/m 0 min 0 min 0 W/m 3,2 km/h (1 Bft) 95,65 %
11.11.2023 03:32 6,4 C 5,6 C 2,8 C 98 % 1001,0 hPa 0,0 l/m 0 min 0 min 0 W/m 6,4 km/h (2 Bft) 97,87 %
11.11.2023 03:34 6,3 C 5,6 C 2,8 C 98 % 1001,0 hPa 0,0 l/m 0 min 0 min 0 W/m 6,4 km/h (2 Bft) 97,87 %
11.11.2023 03:36 6,3 C 5,6 C 2,8 C 98 % 1001,0 hPa 0,0 l/m 0 min 0 min 0 W/m 6,4 km/h (2 Bft) 97,87 %
11.11.2023 03:38 6,3 C 5,6 C 2,8 C 98 % 1001,1 hPa 0,0 l/m 0 min 0 min 0 W/m 9,7 km/h (2 Bft) 95,74 %
11.11.2023 03:40 6,3 C 5,6 C 2,8 C 98 % 1001,0 hPa 0,0 l/m 0 min 0 min 0 W/m 6,4 km/h (2 Bft) 97,87 %
11.11.2023 03:42 6,3 C 5,6 C 2,8 C 98 % 1001,0 hPa 0,0 l/m 0 min 0 min 0 W/m 12,9 km/h (3 Bft) 95,74 %
11.11.2023 03:44 6,3 C 5,6 C 2,8 C 98 % 1001,1 hPa 0,0 l/m 0 min 0 min 0 W/m 6,4 km/h (2 Bft) 97,83 %
11.11.2023 03:46 6,3 C 5,6 C 2,8 C 98 % 1001,1 hPa 0,0 l/m 0 min 0 min 0 W/m 3,2 km/h (1 Bft) 97,87 %
11.11.2023 03:48 6,2 C 5,6 C 2,8 C 98 % 1001,1 hPa 0,0 l/m 0 min 0 min 0 W/m 3,2 km/h (1 Bft) 97,87 %
11.11.2023 03:50 6,2 C 5,6 C 2,8 C 98 % 1001,1 hPa 0,0 l/m 0 min 0 min 0 W/m 6,4 km/h (2 Bft) 97,87 %
11.11.2023 03:52 6,2 C 5,6 C 2,8 C 98 % 1001,2 hPa 0,0 l/m 0 min 0 min 0 W/m 6,4 km/h (2 Bft) 95,74 %
11.11.2023 03:54 6,2 C 5,6 C 2,8 C 98 % 1001,2 hPa 0,0 l/m 0 min 0 min 0 W/m 9,7 km/h (2 Bft) 94,29 %
11.11.2023 03:56 6,2 C 5,6 C 2,8 C 98 % 1001,2 hPa 0,0 l/m 0 min 0 min 0 W/m 16,1 km/h (3 Bft) 98,04 %
11.11.2023 03:58 6,2 C 5,6 C 2,8 C 98 % 1001,2 hPa 0,0 l/m 0 min 0 min 0 W/m 6,4 km/h (2 Bft) 97,87 %
11.11.2023 04:00 6,2 C 5,6 C 2,8 C 98 % 1001,2 hPa 0,0 l/m 0 min 0 min 0 W/m 12,9 km/h (3 Bft) 100,00 %
11.11.2023 04:02 6,2 C 5,6 C 2,8 C 98 % 1001,2 hPa 0,0 l/m 0 min 0 min 0 W/m 9,7 km/h (2 Bft) 100,00 %
11.11.2023 04:04 6,2 C 5,6 C 2,8 C 98 % 1001,3 hPa 0,0 l/m 0 min 0 min 0 W/m 9,7 km/h (2 Bft) 100,00 %
11.11.2023 04:08 6,2 C 5,6 C 2,8 C 98 % 1001,2 hPa 0,0 l/m 0 min 0 min 0 W/m 9,7 km/h (2 Bft) 98,96 %
11.11.2023 04:09 6,2 C 5,6 C 2,8 C 98 % 1001,3 hPa 0,0 l/m 0 min 0 min 0 W/m 6,4 km/h (2 Bft) 100,00 %
11.11.2023 04:12 6,2 C 5,6 C 2,8 C 98 % 1001,3 hPa 0,0 l/m 0 min 0 min 0 W/m 6,4 km/h (2 Bft) 98,57 %
11.11.2023 04:14 6,2 C 5,6 C 2,8 C 98 % 1001,3 hPa 0,0 l/m 0 min 0 min 0 W/m 6,4 km/h (2 Bft) 100,00 %
11.11.2023 04:16 6,2 C 5,6 C 2,8 C 98 % 1001,4 hPa 0,0 l/m 0 min 0 min 0 W/m 12,9 km/h (3 Bft) 97,87 %
11.11.2023 04:18 6,2 C 5,6 C 2,8 C 98 % 1001,4 hPa 0,0 l/m 0 min 0 min 0 W/m 6,4 km/h (2 Bft) 97,83 %
11.11.2023 04:20 6,2 C 5,6 C 2,8 C 98 % 1001,4 hPa 0,0 l/m 0 min 0 min 0 W/m 12,9 km/h (3 Bft) 97,87 %
11.11.2023 04:22 6,2 C 5,6 C 2,8 C 98 % 1001,4 hPa 0,0 l/m 0 min 0 min 0 W/m 9,7 km/h (2 Bft) 97,87 %
11.11.2023 04:24 6,2 C 5,6 C 2,8 C 98 % 1001,5 hPa 0,0 l/m 0 min 0 min 0 W/m 12,9 km/h (3 Bft) 97,87 %
11.11.2023 04:26 6,3 C 5,6 C 2,8 C 98 % 1001,5 hPa 0,0 l/m 0 min 0 min 0 W/m 12,9 km/h (3 Bft) 97,87 %
11.11.2023 04:28 6,3 C 5,6 C 2,8 C 98 % 1001,5 hPa 0,0 l/m 0 min 0 min 0 W/m 12,9 km/h (3 Bft) 97,87 %
11.11.2023 04:30 6,3 C 6,1 C 2,8 C 98 % 1001,6 hPa 0,0 l/m 0 min 0 min 0 W/m 12,9 km/h (3 Bft) 97,87 %
11.11.2023 04:32 6,3 C 6,1 C 2,8 C 98 % 1001,6 hPa 0,0 l/m 0 min 0 min 0 W/m 9,7 km/h (2 Bft) 95,65 %
11.11.2023 04:34 6,3 C 6,1 C 2,8 C 98 % 1001,5 hPa 0,0 l/m 0 min 2 min 0 W/m 6,4 km/h (2 Bft) 97,87 %
11.11.2023 04:36 6,3 C 6,1 C 2,8 C 98 % 1001,6 hPa 0,0 l/m 0 min 2 min 0 W/m 9,7 km/h (2 Bft) 97,87 %
11.11.2023 04:38 6,3 C 6,1 C 2,8 C 98 % 1001,7 hPa 0,2 l/m 0 min 0 min 0 W/m 9,7 km/h (2 Bft) 97,87 %
11.11.2023 04:40 6,3 C 6,1 C 2,8 C 98 % 1001,7 hPa 0,0 l/m 0 min 2 min 0 W/m 12,9 km/h (3 Bft) 93,62 %
11.11.2023 04:42 6,3 C 6,1 C 2,8 C 98 % 1001,7 hPa 0,0 l/m 0 min 0 min 0 W/m 9,7 km/h (2 Bft) 95,74 %
11.11.2023 04:44 6,4 C 6,1 C 2,8 C 98 % 1001,8 hPa 0,0 l/m 0 min 0 min 0 W/m 9,7 km/h (2 Bft) 93,62 %
11.11.2023 04:46 6,4 C 6,1 C 2,8 C 98 % 1001,8 hPa 0,0 l/m 0 min 0 min 0 W/m 19,3 km/h (3 Bft) 93,48 %
11.11.2023 04:48 6,4 C 6,1 C 2,8 C 98 % 1001,8 hPa 0,0 l/m 0 min 0 min 0 W/m 9,7 km/h (2 Bft) 95,74 %
11.11.2023 04:50 6,4 C 6,1 C 2,8 C 98 % 1001,9 hPa 0,0 l/m 0 min 0 min 0 W/m 16,1 km/h (3 Bft) 95,74 %
11.11.2023 04:52 6,4 C 6,1 C 2,8 C 98 % 1001,9 hPa 0,0 l/m 0 min 0 min 0 W/m 9,7 km/h (2 Bft) 95,74 %
11.11.2023 04:54 6,3 C 5,6 C 2,8 C 98 % 1001,9 hPa 0,0 l/m 0 min 0 min 0 W/m 12,9 km/h (3 Bft) 97,50 %
11.11.2023 04:56 6,3 C 5,6 C 2,8 C 98 % 1001,9 hPa 0,0 l/m 0 min 0 min 0 W/m 12,9 km/h (3 Bft) 97,87 %
11.11.2023 04:58 6,3 C 5,6 C 2,8 C 98 % 1002,0 hPa 0,0 l/m 0 min 0 min 0 W/m 19,3 km/h (3 Bft) 97,87 %
11.11.2023 05:00 6,3 C 5,6 C 2,8 C 98 % 1002,0 hPa 0,0 l/m 0 min 0 min 0 W/m 12,9 km/h (3 Bft) 97,87 %
11.11.2023 05:02 6,3 C 5,6 C 2,8 C 98 % 1002,0 hPa 0,0 l/m 0 min 0 min 0 W/m 9,7 km/h (2 Bft) 97,87 %
11.11.2023 05:04 6,3 C 5,6 C 2,8 C 98 % 1002,0 hPa 0,0 l/m 0 min 0 min 0 W/m 6,4 km/h (2 Bft) 97,62 %
11.11.2023 05:06 6,3 C 5,6 C 2,8 C 98 % 1002,1 hPa 0,0 l/m 0 min 0 min 0 W/m 12,9 km/h (3 Bft) 97,83 %
11.11.2023 05:08 6,3 C 5,6 C 2,8 C 98 % 1002,1 hPa 0,0 l/m 0 min 0 min 0 W/m 12,9 km/h (3 Bft) 97,87 %
11.11.2023 05:10 6,2 C 5,6 C 2,8 C 98 % 1002,1 hPa 0,0 l/m 0 min 0 min 0 W/m 12,9 km/h (3 Bft) 98,11 %
11.11.2023 05:12 6,2 C 5,6 C 2,8 C 98 % 1002,1 hPa 0,0 l/m 0 min 0 min 0 W/m 9,7 km/h (2 Bft) 97,87 %
11.11.2023 05:14 6,2 C 5,6 C 2,8 C 98 % 1002,2 hPa 0,0 l/m 0 min 0 min 0 W/m 12,9 km/h (3 Bft) 97,87 %
11.11.2023 05:16 6,2 C 5,6 C 2,8 C 98 % 1002,2 hPa 0,0 l/m 0 min 0 min 0 W/m 19,3 km/h (3 Bft) 95,65 %
11.11.2023 05:18 6,2 C 5,6 C 2,8 C 98 % 1002,2 hPa 0,0 l/m 0 min 0 min 0 W/m 9,7 km/h (2 Bft) 97,87 %
11.11.2023 05:20 6,2 C 5,6 C 2,8 C 98 % 1002,3 hPa 0,0 l/m 0 min 0 min 0 W/m 12,9 km/h (3 Bft) 97,87 %
11.11.2023 05:22 6,2 C 5,6 C 2,8 C 98 % 1002,3 hPa 0,0 l/m 0 min 0 min 0 W/m 12,9 km/h (3 Bft) 97,87 %
11.11.2023 05:24 6,2 C 5,6 C 2,8 C 98 % 1002,4 hPa 0,0 l/m 0 min 0 min 0 W/m 12,9 km/h (3 Bft) 97,87 %
11.11.2023 05:26 6,3 C 5,6 C 2,8 C 98 % 1002,4 hPa 0,0 l/m 0 min 0 min 0 W/m 6,4 km/h (2 Bft) 97,87 %
11.11.2023 05:28 6,3 C 5,6 C 2,8 C 98 % 1002,4 hPa 0,0 l/m 0 min 0 min 0 W/m 9,7 km/h (2 Bft) 100,00 %
11.11.2023 05:30 6,3 C 5,6 C 2,8 C 98 % 1002,4 hPa 0,0 l/m 0 min 0 min 0 W/m 12,9 km/h (3 Bft) 97,87 %
11.11.2023 05:32 6,3 C 5,6 C 2,8 C 98 % 1002,5 hPa 0,0 l/m 0 min 0 min 0 W/m 12,9 km/h (3 Bft) 100,00 %
11.11.2023 05:34 6,3 C 5,6 C 2,8 C 98 % 1002,5 hPa 0,0 l/m 0 min 0 min 0 W/m 6,4 km/h (2 Bft) 97,87 %
11.11.2023 05:36 6,3 C 5,6 C 2,8 C 98 % 1002,5 hPa 0,0 l/m 0 min 0 min 0 W/m 9,7 km/h (2 Bft) 100,00 %
11.11.2023 05:38 6,3 C 6,1 C 2,8 C 98 % 1002,6 hPa 0,0 l/m 0 min 0 min 0 W/m 6,4 km/h (2 Bft) 100,00 %
11.11.2023 05:40 6,3 C 6,1 C 2,8 C 98 % 1002,6 hPa 0,0 l/m 0 min 0 min 0 W/m 9,7 km/h (2 Bft) 100,00 %
11.11.2023 05:42 6,3 C 6,1 C 2,8 C 98 % 1002,6 hPa 0,0 l/m 0 min 0 min 0 W/m 9,7 km/h (2 Bft) 100,00 %
11.11.2023 05:44 6,3 C 6,1 C 2,8 C 98 % 1002,6 hPa 0,0 l/m 0 min 0 min 0 W/m 6,4 km/h (2 Bft) 100,00 %
11.11.2023 05:46 6,3 C 6,1 C 2,8 C 98 % 1002,6 hPa 0,0 l/m 0 min 0 min 0 W/m 19,3 km/h (3 Bft) 100,00 %
11.11.2023 05:48 6,3 C 6,1 C 2,8 C 98 % 1002,7 hPa 0,0 l/m 0 min 0 min 0 W/m 12,9 km/h (3 Bft) 100,00 %
11.11.2023 05:50 6,3 C 6,1 C 2,8 C 98 % 1002,7 hPa 0,0 l/m 0 min 0 min 0 W/m 12,9 km/h (3 Bft) 100,00 %
11.11.2023 05:52 6,3 C 6,1 C 2,8 C 98 % 1002,8 hPa 0,0 l/m 0 min 0 min 0 W/m 9,7 km/h (2 Bft) 100,00 %
11.11.2023 05:54 6,4 C 6,1 C 2,8 C 98 % 1002,8 hPa 0,0 l/m 0 min 0 min 0 W/m 9,7 km/h (2 Bft) 100,00 %
11.11.2023 05:56 6,4 C 6,1 C 2,8 C 98 % 1002,8 hPa 0,0 l/m 0 min 0 min 0 W/m 16,1 km/h (3 Bft) 100,00 %
11.11.2023 05:58 6,4 C 6,1 C 2,8 C 98 % 1002,9 hPa 0,0 l/m 0 min 0 min 0 W/m 9,7 km/h (2 Bft) 97,87 %
11.11.2023 06:00 6,3 C 6,1 C 2,8 C 98 % 1002,9 hPa 0,0 l/m 0 min 0 min 0 W/m 6,4 km/h (2 Bft) 100,00 %
11.11.2023 06:02 6,3 C 6,1 C 2,8 C 98 % 1002,9 hPa 0,0 l/m 0 min 0 min 0 W/m 12,9 km/h (3 Bft) 97,87 %
11.11.2023 06:04 6,4 C 6,1 C 2,8 C 97 % 1003,0 hPa 0,0 l/m 0 min 0 min 0 W/m 16,1 km/h (3 Bft) 100,00 %
11.11.2023 06:08 6,4 C 6,1 C 2,8 C 97 % 1003,0 hPa 0,0 l/m 0 min 0 min 0 W/m 16,1 km/h (3 Bft) 99,06 %
11.11.2023 06:10 6,4 C 6,1 C 2,8 C 97 % 1003,0 hPa 0,0 l/m 0 min 0 min 0 W/m 9,7 km/h (2 Bft) 97,83 %
11.11.2023 06:12 6,4 C 6,1 C 2,8 C 98 % 1003,0 hPa 0,0 l/m 0 min 0 min 0 W/m 12,9 km/h (3 Bft) 97,87 %
11.11.2023 06:16 6,4 C 6,1 C 2,8 C 97 % 1003,1 hPa 0,0 l/m 0 min 0 min 0 W/m 9,7 km/h (2 Bft) 94,68 %
11.11.2023 06:18 6,4 C 6,1 C 2,8 C 97 % 1003,2 hPa 0,0 l/m 0 min 0 min 0 W/m 9,7 km/h (2 Bft) 95,74 %
11.11.2023 06:20 6,4 C 6,1 C 2,8 C 97 % 1003,1 hPa 0,0 l/m 0 min 0 min 0 W/m 6,4 km/h (2 Bft) 93,62 %
11.11.2023 06:22 6,4 C 6,1 C 2,8 C 97 % 1003,1 hPa 0,0 l/m 0 min 0 min 0 W/m 16,1 km/h (3 Bft) 93,62 %
11.11.2023 06:24 6,4 C 6,1 C 2,8 C 97 % 1003,1 hPa 0,0 l/m 0 min 0 min 0 W/m 19,3 km/h (3 Bft) 95,65 %
11.11.2023 06:26 6,4 C 6,1 C 2,8 C 97 % 1003,1 hPa 0,0 l/m 0 min 0 min 0 W/m 16,1 km/h (3 Bft) 91,49 %
11.11.2023 06:28 6,4 C 6,1 C 2,8 C 97 % 1003,2 hPa 0,0 l/m 0 min 0 min 0 W/m 6,4 km/h (2 Bft) 94,29 %
11.11.2023 06:30 6,4 C 6,1 C 2,8 C 97 % 1003,3 hPa 0,0 l/m 0 min 0 min 0 W/m 12,9 km/h (3 Bft) 91,49 %
11.11.2023 06:32 6,4 C 6,1 C 2,8 C 97 % 1003,3 hPa 0,0 l/m 0 min 0 min 0 W/m 12,9 km/h (3 Bft) 93,62 %
11.11.2023 06:34 6,4 C 6,1 C 2,8 C 97 % 1003,3 hPa 0,0 l/m 0 min 0 min 0 W/m 6,4 km/h (2 Bft) 95,74 %
11.11.2023 06:36 6,4 C 6,1 C 2,8 C 97 % 1003,4 hPa 0,0 l/m 0 min 2 min 0 W/m 12,9 km/h (3 Bft) 93,62 %
11.11.2023 06:38 6,4 C 6,1 C 2,8 C 97 % 1003,3 hPa 0,0 l/m 0 min 2 min 0 W/m 12,9 km/h (3 Bft) 93,62 %
11.11.2023 06:40 6,5 C 6,1 C 2,8 C 97 % 1003,4 hPa 0,0 l/m 0 min 2 min 0 W/m 3,2 km/h (1 Bft) 95,74 %
11.11.2023 06:42 6,5 C 6,1 C 2,8 C 97 % 1003,4 hPa 0,0 l/m 0 min 2 min 0 W/m 12,9 km/h (3 Bft) 95,65 %
11.11.2023 06:44 6,5 C 6,1 C 2,8 C 97 % 1003,4 hPa 0,0 l/m 0 min 0 min 0 W/m 9,7 km/h (2 Bft) 97,87 %
11.11.2023 06:46 6,5 C 6,1 C 3,3 C 97 % 1003,4 hPa 0,0 l/m 0 min 0 min 0 W/m 6,4 km/h (2 Bft) 61,70 %
11.11.2023 06:48 6,6 C 6,1 C 3,3 C 97 % 1003,4 hPa 0,0 l/m 0 min 0 min 0 W/m 12,9 km/h (3 Bft) 90,48 %
11.11.2023 06:50 6,6 C 6,1 C 3,3 C 97 % 1003,5 hPa 0,0 l/m 0 min 0 min 0 W/m 12,9 km/h (3 Bft) 95,74 %
11.11.2023 06:52 6,6 C 6,1 C 2,8 C 97 % 1003,5 hPa 0,0 l/m 0 min 0 min 0 W/m 6,4 km/h (2 Bft) 95,74 %
11.11.2023 06:54 6,6 C 6,1 C 3,3 C 97 % 1003,6 hPa 0,0 l/m 0 min 0 min 0 W/m 6,4 km/h (2 Bft) 96,00 %
11.11.2023 06:56 6,6 C 6,1 C 3,3 C 97 % 1003,6 hPa 0,0 l/m 0 min 0 min 0 W/m 6,4 km/h (2 Bft) 97,92 %
11.11.2023 06:58 6,6 C 5,6 C 3,3 C 97 % 1003,6 hPa 0,0 l/m 0 min 0 min 0 W/m 6,4 km/h (2 Bft) 97,87 %
11.11.2023 07:00 6,6 C 5,6 C 2,8 C 97 % 1003,6 hPa 0,0 l/m 0 min 0 min 0 W/m 9,7 km/h (2 Bft) 95,74 %
11.11.2023 07:02 6,5 C 5,6 C 2,8 C 97 % 1003,6 hPa 0,0 l/m 0 min 0 min 0 W/m 6,4 km/h (2 Bft) 95,74 %
11.11.2023 07:04 6,5 C 5,6 C 2,8 C 97 % 1003,6 hPa 0,0 l/m 0 min 0 min 0 W/m 6,4 km/h (2 Bft) 97,87 %
11.11.2023 07:08 6,5 C 5,6 C 2,8 C 97 % 1003,6 hPa 0,0 l/m 0 min 0 min 0 W/m 12,9 km/h (3 Bft) 95,70 %
11.11.2023 07:10 6,4 C 5,6 C 2,8 C 97 % 1003,6 hPa 0,0 l/m 0 min 0 min 0 W/m 6,4 km/h (2 Bft) 97,87 %
11.11.2023 07:12 6,4 C 5,6 C 2,8 C 97 % 1003,6 hPa 0,0 l/m 0 min 0 min 0 W/m 6,4 km/h (2 Bft) 95,74 %
11.11.2023 07:14 6,4 C 5,6 C 2,8 C 97 % 1003,6 hPa 0,0 l/m 0 min 0 min 0 W/m 6,4 km/h (2 Bft) 93,62 %
11.11.2023 07:16 6,4 C 5,6 C 2,8 C 97 % 1003,6 hPa 0,0 l/m 0 min 0 min 0 W/m 12,9 km/h (3 Bft) 97,87 %
11.11.2023 07:18 6,3 C 5,6 C 2,8 C 97 % 1003,6 hPa 0,0 l/m 0 min 0 min 0 W/m 6,4 km/h (2 Bft) 95,74 %
11.11.2023 07:20 6,3 C 5,6 C 2,8 C 97 % 1003,7 hPa 0,0 l/m 0 min 0 min 0 W/m 9,7 km/h (2 Bft) 97,83 %
11.11.2023 07:22 6,3 C 5,6 C 2,8 C 97 % 1003,7 hPa 0,0 l/m 0 min 0 min 0 W/m 12,9 km/h (3 Bft) 97,87 %
11.11.2023 07:24 6,3 C 5,6 C 2,8 C 97 % 1003,8 hPa 0,0 l/m 0 min 0 min 0 W/m 9,7 km/h (2 Bft) 95,74 %
11.11.2023 07:26 6,3 C 5,6 C 2,8 C 97 % 1003,7 hPa 0,0 l/m 0 min 0 min 0 W/m 6,4 km/h (2 Bft) 93,62 %
11.11.2023 07:28 6,2 C 5,6 C 2,8 C 97 % 1003,8 hPa 0,0 l/m 0 min 0 min 0 W/m 9,7 km/h (2 Bft) 97,87 %
11.11.2023 07:30 6,2 C 5,6 C 2,8 C 97 % 1003,8 hPa 0,0 l/m 0 min 0 min 0 W/m 12,9 km/h (3 Bft) 97,87 %
11.11.2023 07:32 6,2 C 5,6 C 2,8 C 97 % 1003,8 hPa 0,0 l/m 0 min 0 min 0 W/m 12,9 km/h (3 Bft) 95,74 %
11.11.2023 07:34 6,2 C 5,6 C 2,8 C 97 % 1003,8 hPa 0,0 l/m 0 min 0 min 0 W/m 12,9 km/h (3 Bft) 97,83 %
11.11.2023 07:36 6,2 C 5,6 C 2,8 C 97 % 1003,9 hPa 0,0 l/m 0 min 0 min 0 W/m 6,4 km/h (2 Bft) 97,87 %
11.11.2023 07:38 6,1 C 5,6 C 2,8 C 97 % 1003,9 hPa 0,0 l/m 0 min 0 min 0 W/m 12,9 km/h (3 Bft) 97,87 %
11.11.2023 07:40 6,1 C 5,6 C 2,8 C 97 % 1003,9 hPa 0,0 l/m 0 min 0 min 0 W/m 12,9 km/h (3 Bft) 95,74 %
11.11.2023 07:42 6,1 C 5,6 C 2,8 C 97 % 1004,0 hPa 0,0 l/m 0 min 0 min 0 W/m 6,4 km/h (2 Bft) 97,87 %
11.11.2023 07:44 6,1 C 5,6 C 2,8 C 97 % 1004,0 hPa 0,0 l/m 0 min 0 min 0 W/m 12,9 km/h (3 Bft) 97,87 %
11.11.2023 07:46 6,1 C 5,6 C 2,8 C 97 % 1004,0 hPa 0,0 l/m 0 min 0 min 0 W/m 9,7 km/h (2 Bft) 95,74 %
11.11.2023 07:48 6,0 C 5,6 C 2,8 C 97 % 1004,0 hPa 0,0 l/m 0 min 0 min 0 W/m 6,4 km/h (2 Bft) 95,65 %
11.11.2023 07:50 6,0 C 5,6 C 2,8 C 97 % 1004,0 hPa 0,0 l/m 0 min 0 min 3 W/m 9,7 km/h (2 Bft) 100,00 %
11.11.2023 07:52 6,0 C 5,6 C 2,8 C 97 % 1004,1 hPa 0,0 l/m 0 min 0 min 5 W/m 6,4 km/h (2 Bft) 97,87 %
11.11.2023 07:54 6,0 C 5,6 C 2,8 C 97 % 1004,0 hPa 0,0 l/m 0 min 0 min 5 W/m 12,9 km/h (3 Bft) 100,00 %
11.11.2023 07:56 5,9 C 5,6 C 2,8 C 97 % 1004,1 hPa 0,0 l/m 0 min 0 min 7 W/m 16,1 km/h (3 Bft) 97,87 %
11.11.2023 07:58 5,9 C 5,6 C 2,8 C 97 % 1004,1 hPa 0,0 l/m 0 min 0 min 9 W/m 6,4 km/h (2 Bft) 95,74 %
11.11.2023 08:00 5,9 C 5,6 C 2,8 C 97 % 1004,1 hPa 0,0 l/m 0 min 0 min 9 W/m 12,9 km/h (3 Bft) 93,62 %
11.11.2023 08:02 5,9 C 5,6 C 2,8 C 97 % 1004,1 hPa 0,0 l/m 0 min 0 min 9 W/m 12,9 km/h (3 Bft) 97,83 %
11.11.2023 08:04 5,9 C 5,6 C 2,8 C 97 % 1004,2 hPa 0,0 l/m 0 min 0 min 11 W/m 12,9 km/h (3 Bft) 95,65 %
11.11.2023 08:06 5,9 C 5,6 C 2,2 C 97 % 1004,2 hPa 0,0 l/m 0 min 0 min 14 W/m 9,7 km/h (2 Bft) 97,87 %
11.11.2023 08:08 5,9 C 5,6 C 2,8 C 97 % 1004,2 hPa 0,0 l/m 0 min 0 min 19 W/m 6,4 km/h (2 Bft) 100,00 %
11.11.2023 08:10 5,8 C 5,6 C 2,8 C 97 % 1004,3 hPa 0,0 l/m 0 min 0 min 19 W/m 16,1 km/h (3 Bft) 95,74 %
11.11.2023 08:12 5,8 C 5,6 C 2,8 C 97 % 1004,2 hPa 0,0 l/m 0 min 0 min 18 W/m 9,7 km/h (2 Bft) 95,74 %
11.11.2023 08:14 5,9 C 5,6 C 2,8 C 97 % 1004,2 hPa 0,0 l/m 0 min 0 min 18 W/m 12,9 km/h (3 Bft) 97,87 %
11.11.2023 08:16 5,8 C 5,6 C 2,2 C 97 % 1004,3 hPa 0,0 l/m 0 min 0 min 15 W/m 9,7 km/h (2 Bft) 95,65 %
11.11.2023 08:18 5,8 C 5,0 C 2,2 C 97 % 1004,4 hPa 0,0 l/m 0 min 0 min 14 W/m 12,9 km/h (3 Bft) 97,87 %
11.11.2023 08:20 5,8 C 5,0 C 2,2 C 97 % 1004,3 hPa 0,0 l/m 0 min 0 min 18 W/m 12,9 km/h (3 Bft) 97,87 %
11.11.2023 08:22 5,8 C 5,6 C 2,2 C 97 % 1004,3 hPa 0,0 l/m 0 min 0 min 22 W/m 16,1 km/h (3 Bft) 98,15 %
11.11.2023 08:24 5,8 C 5,6 C 2,2 C 97 % 1004,5 hPa 0,0 l/m 0 min 0 min 26 W/m 12,9 km/h (3 Bft) 95,74 %
11.11.2023 08:26 5,8 C 5,6 C 2,2 C 97 % 1004,4 hPa 0,0 l/m 0 min 0 min 30 W/m 6,4 km/h (2 Bft) 97,87 %
11.11.2023 08:28 5,8 C 5,6 C 2,8 C 97 % 1004,4 hPa 0,0 l/m 0 min 0 min 37 W/m 12,9 km/h (3 Bft) 100,00 %
11.11.2023 08:30 5,8 C 5,6 C 2,2 C 97 % 1004,5 hPa 0,0 l/m 0 min 0 min 38 W/m 16,1 km/h (3 Bft) 100,00 %
11.11.2023 08:32 5,8 C 5,6 C 2,2 C 97 % 1004,6 hPa 0,0 l/m 0 min 0 min 33 W/m 16,1 km/h (3 Bft) 100,00 %
11.11.2023 08:34 5,8 C 5,6 C 2,8 C 97 % 1004,5 hPa 0,0 l/m 0 min 0 min 33 W/m 12,9 km/h (3 Bft) 97,83 %
11.11.2023 08:36 5,8 C 5,6 C 2,8 C 97 % 1004,5 hPa 0,0 l/m 0 min 0 min 36 W/m 19,3 km/h (3 Bft) 100,00 %
11.11.2023 08:38 5,8 C 5,6 C 2,8 C 97 % 1004,5 hPa 0,0 l/m 0 min 0 min 38 W/m 19,3 km/h (3 Bft) 100,00 %
11.11.2023 08:40 5,8 C 5,6 C 2,8 C 97 % 1004,5 hPa 0,0 l/m 0 min 0 min 39 W/m 12,9 km/h (3 Bft) 100,00 %
11.11.2023 08:42 5,8 C 5,6 C 2,8 C 97 % 1004,6 hPa 0,0 l/m 0 min 0 min 38 W/m 12,9 km/h (3 Bft) 100,00 %
11.11.2023 08:44 5,8 C 5,6 C 2,8 C 97 % 1004,6 hPa 0,0 l/m 0 min 0 min 36 W/m 12,9 km/h (3 Bft) 100,00 %
11.11.2023 08:46 5,8 C 5,6 C 2,8 C 97 % 1004,6 hPa 0,0 l/m 0 min 0 min 39 W/m 12,9 km/h (3 Bft) 100,00 %
11.11.2023 08:48 5,8 C 5,6 C 2,8 C 97 % 1004,7 hPa 0,0 l/m 0 min 0 min 40 W/m 12,9 km/h (3 Bft) 100,00 %
11.11.2023 08:50 5,8 C 5,6 C 2,8 C 97 % 1004,6 hPa 0,0 l/m 0 min 0 min 43 W/m 12,9 km/h (3 Bft) 100,00 %
11.11.2023 08:52 5,9 C 5,6 C 2,8 C 97 % 1004,6 hPa 0,0 l/m 0 min 0 min 44 W/m 16,1 km/h (3 Bft) 100,00 %
11.11.2023 08:54 5,8 C 5,6 C 2,8 C 97 % 1004,6 hPa 0,0 l/m 0 min 0 min 45 W/m 16,1 km/h (3 Bft) 97,96 %
11.11.2023 08:56 5,9 C 5,6 C 2,8 C 97 % 1004,6 hPa 0,0 l/m 0 min 0 min 50 W/m 12,9 km/h (3 Bft) 100,00 %
11.11.2023 08:58 5,9 C 5,6 C 2,8 C 97 % 1004,5 hPa 0,0 l/m 0 min 0 min 52 W/m 3,2 km/h (1 Bft) 100,00 %
11.11.2023 09:00 5,9 C 5,6 C 2,8 C 97 % 1004,6 hPa 0,0 l/m 0 min 0 min 54 W/m 6,4 km/h (2 Bft) 100,00 %
11.11.2023 09:02 5,9 C 5,6 C 2,8 C 97 % 1004,6 hPa 0,0 l/m 0 min 0 min 61 W/m 12,9 km/h (3 Bft) 100,00 %
11.11.2023 09:04 5,9 C 5,6 C 2,8 C 97 % 1004,6 hPa 0,0 l/m 0 min 0 min 63 W/m 19,3 km/h (3 Bft) 100,00 %
11.11.2023 09:06 5,9 C 5,6 C 2,8 C 97 % 1004,7 hPa 0,0 l/m 0 min 0 min 64 W/m 16,1 km/h (3 Bft) 100,00 %
11.11.2023 09:08 6,0 C 5,6 C 2,8 C 97 % 1004,7 hPa 0,0 l/m 0 min 0 min 59 W/m 19,3 km/h (3 Bft) 100,00 %
11.11.2023 09:10 6,0 C 5,6 C 2,8 C 97 % 1004,7 hPa 0,0 l/m 0 min 0 min 55 W/m 12,9 km/h (3 Bft) 95,74 %
11.11.2023 09:12 6,0 C 5,6 C 2,8 C 97 % 1004,7 hPa 0,0 l/m 0 min 0 min 48 W/m 12,9 km/h (3 Bft) 97,87 %
11.11.2023 09:14 6,1 C 5,6 C 2,8 C 97 % 1004,7 hPa 0,0 l/m 0 min 0 min 48 W/m 12,9 km/h (3 Bft) 100,00 %
11.11.2023 09:16 6,1 C 5,6 C 2,8 C 97 % 1004,6 hPa 0,0 l/m 0 min 0 min 47 W/m 12,9 km/h (3 Bft) 97,87 %
11.11.2023 09:18 6,1 C 6,1 C 2,8 C 97 % 1004,6 hPa 0,0 l/m 0 min 0 min 50 W/m 12,9 km/h (3 Bft) 100,00 %
11.11.2023 09:20 6,1 C 6,1 C 2,8 C 97 % 1004,7 hPa 0,0 l/m 0 min 0 min 46 W/m 6,4 km/h (2 Bft) 97,87 %
11.11.2023 09:22 6,1 C 6,1 C 2,8 C 97 % 1004,7 hPa 0,0 l/m 0 min 0 min 46 W/m 12,9 km/h (3 Bft) 100,00 %
11.11.2023 09:24 6,1 C 6,1 C 2,8 C 97 % 1004,7 hPa 0,0 l/m 0 min 0 min 59 W/m 16,1 km/h (3 Bft) 100,00 %
11.11.2023 09:26 6,1 C 6,1 C 2,8 C 97 % 1004,8 hPa 0,0 l/m 0 min 0 min 55 W/m 12,9 km/h (3 Bft) 95,74 %
11.11.2023 09:28 6,1 C 6,1 C 2,8 C 97 % 1004,8 hPa 0,0 l/m 0 min 0 min 53 W/m 16,1 km/h (3 Bft) 95,74 %
11.11.2023 09:30 6,1 C 6,1 C 2,8 C 97 % 1004,9 hPa 0,0 l/m 0 min 0 min 45 W/m 16,1 km/h (3 Bft) 95,74 %
11.11.2023 09:32 6,2 C 6,1 C 2,8 C 97 % 1004,9 hPa 0,0 l/m 0 min 0 min 48 W/m 16,1 km/h (3 Bft) 97,83 %
11.11.2023 09:34 6,2 C 6,1 C 2,8 C 97 % 1004,9 hPa 0,0 l/m 0 min 0 min 67 W/m 12,9 km/h (3 Bft) 95,74 %
11.11.2023 09:36 6,2 C 6,1 C 2,8 C 97 % 1004,9 hPa 0,0 l/m 0 min 0 min 88 W/m 6,4 km/h (2 Bft) 95,74 %
11.11.2023 09:38 6,2 C 6,1 C 2,8 C 97 % 1004,9 hPa 0,0 l/m 0 min 0 min 91 W/m 12,9 km/h (3 Bft) 95,74 %
11.11.2023 09:40 6,2 C 6,1 C 2,8 C 97 % 1004,9 hPa 0,0 l/m 0 min 0 min 99 W/m 6,4 km/h (2 Bft) 91,49 %
11.11.2023 09:42 6,3 C 6,1 C 2,8 C 97 % 1004,9 hPa 0,0 l/m 0 min 0 min 78 W/m 19,3 km/h (3 Bft) 95,74 %
11.11.2023 09:44 6,3 C 6,1 C 2,8 C 97 % 1004,9 hPa 0,0 l/m 0 min 0 min 69 W/m 12,9 km/h (3 Bft) 93,48 %
11.11.2023 09:46 6,3 C 6,1 C 2,8 C 97 % 1004,9 hPa 0,0 l/m 0 min 0 min 78 W/m 12,9 km/h (3 Bft) 94,59 %
11.11.2023 09:48 6,3 C 6,1 C 2,8 C 97 % 1005,0 hPa 0,0 l/m 0 min 0 min 78 W/m 6,4 km/h (2 Bft) 89,36 %
11.11.2023 09:50 6,4 C 6,1 C 2,8 C 97 % 1005,0 hPa 0,0 l/m 0 min 0 min 80 W/m 16,1 km/h (3 Bft) 93,62 %
11.11.2023 09:52 6,4 C 6,1 C 2,8 C 97 % 1004,9 hPa 0,0 l/m 0 min 0 min 75 W/m 16,1 km/h (3 Bft) 93,62 %
11.11.2023 09:54 6,4 C 6,1 C 2,8 C 96 % 1005,0 hPa 0,0 l/m 0 min 0 min 66 W/m 16,1 km/h (3 Bft) 93,75 %
11.11.2023 09:56 6,4 C 6,1 C 2,8 C 96 % 1005,0 hPa 0,0 l/m 0 min 0 min 50 W/m 22,5 km/h (4 Bft) 93,62 %
11.11.2023 09:58 6,4 C 6,1 C 2,8 C 96 % 1005,1 hPa 0,0 l/m 0 min 0 min 38 W/m 12,9 km/h (3 Bft) 91,49 %
11.11.2023 10:00 6,4 C 6,1 C 2,8 C 96 % 1005,0 hPa 0,0 l/m 0 min 0 min 54 W/m 16,1 km/h (3 Bft) 93,48 %
11.11.2023 10:02 6,5 C 6,1 C 2,8 C 96 % 1005,1 hPa 0,0 l/m 0 min 0 min 75 W/m 19,3 km/h (3 Bft) 91,49 %
11.11.2023 10:04 6,5 C 6,1 C 2,8 C 96 % 1005,0 hPa 0,0 l/m 0 min 0 min 67 W/m 22,5 km/h (4 Bft) 93,18 %
11.11.2023 10:08 6,5 C 6,7 C 3,3 C 96 % 1005,1 hPa 0,0 l/m 0 min 0 min 73 W/m 9,7 km/h (2 Bft) 94,12 %
11.11.2023 10:09 6,5 C 6,7 C 3,3 C 96 % 1005,1 hPa 0,0 l/m 0 min 0 min 111 W/m 12,9 km/h (3 Bft) 91,30 %
11.11.2023 10:10 6,6 C 6,7 C 3,3 C 96 % 1005,1 hPa 0,0 l/m 0 min 0 min 103 W/m 12,9 km/h (3 Bft) 96,49 %
11.11.2023 10:14 6,6 C 6,7 C 3,3 C 96 % 1005,2 hPa 0,0 l/m 0 min 0 min 126 W/m 16,1 km/h (3 Bft) 91,49 %
11.11.2023 10:16 6,7 C 6,7 C 3,3 C 96 % 1005,2 hPa 0,0 l/m 0 min 0 min 84 W/m 6,4 km/h (2 Bft) 95,65 %
11.11.2023 10:18 6,7 C 6,7 C 3,3 C 96 % 1005,2 hPa 0,0 l/m 0 min 0 min 48 W/m 19,3 km/h (3 Bft) 97,87 %
11.11.2023 10:20 6,7 C 6,7 C 3,3 C 96 % 1005,2 hPa 0,0 l/m 0 min 0 min 47 W/m 16,1 km/h (3 Bft) 97,87 %
11.11.2023 10:22 6,7 C 6,7 C 3,3 C 96 % 1005,2 hPa 0,0 l/m 0 min 0 min 57 W/m 16,1 km/h (3 Bft) 93,62 %
11.11.2023 10:24 6,7 C 6,7 C 3,3 C 96 % 1005,3 hPa 0,0 l/m 0 min 0 min 69 W/m 12,9 km/h (3 Bft) 100,00 %
11.11.2023 10:26 6,7 C 6,7 C 3,3 C 96 % 1005,3 hPa 0,0 l/m 0 min 0 min 79 W/m 16,1 km/h (3 Bft) 100,00 %
11.11.2023 10:28 6,8 C 6,7 C 3,3 C 96 % 1005,3 hPa 0,0 l/m 0 min 0 min 75 W/m 12,9 km/h (3 Bft) 100,00 %
11.11.2023 10:30 6,8 C 6,7 C 3,3 C 96 % 1005,3 hPa 0,0 l/m 0 min 0 min 64 W/m 12,9 km/h (3 Bft) 100,00 %
11.11.2023 10:32 6,8 C 6,7 C 3,3 C 96 % 1005,3 hPa 0,0 l/m 0 min 0 min 59 W/m 12,9 km/h (3 Bft) 97,83 %
11.11.2023 10:34 6,8 C 6,7 C 3,3 C 96 % 1005,3 hPa 0,0 l/m 0 min 0 min 66 W/m 12,9 km/h (3 Bft) 100,00 %
11.11.2023 10:36 6,8 C 6,7 C 3,3 C 95 % 1005,3 hPa 0,0 l/m 0 min 0 min 75 W/m 9,7 km/h (2 Bft) 100,00 %
11.11.2023 10:38 6,8 C 6,7 C 3,3 C 95 % 1005,4 hPa 0,0 l/m 0 min 0 min 81 W/m 22,5 km/h (4 Bft) 100,00 %
11.11.2023 10:40 6,8 C 6,7 C 3,3 C 95 % 1005,4 hPa 0,0 l/m 0 min 0 min 81 W/m 19,3 km/h (3 Bft) 100,00 %
11.11.2023 10:42 6,8 C 6,7 C 3,3 C 95 % 1005,4 hPa 0,0 l/m 0 min 0 min 84 W/m 12,9 km/h (3 Bft) 100,00 %
11.11.2023 10:44 6,8 C 6,7 C 3,3 C 95 % 1005,4 hPa 0,0 l/m 0 min 0 min 85 W/m 12,9 km/h (3 Bft) 100,00 %
11.11.2023 10:46 6,9 C 6,7 C 3,3 C 95 % 1005,5 hPa 0,0 l/m 0 min 0 min 87 W/m 16,1 km/h (3 Bft) 97,83 %
11.11.2023 10:48 6,9 C 6,7 C 3,3 C 95 % 1005,4 hPa 0,0 l/m 0 min 0 min 84 W/m 25,7 km/h (4 Bft) 100,00 %
11.11.2023 10:50 6,9 C 6,7 C 3,3 C 95 % 1005,4 hPa 0,0 l/m 0 min 0 min 84 W/m 16,1 km/h (3 Bft) 100,00 %
11.11.2023 10:52 6,9 C 6,7 C 3,3 C 95 % 1005,4 hPa 0,0 l/m 0 min 0 min 95 W/m 16,1 km/h (3 Bft) 100,00 %
11.11.2023 10:54 6,9 C 6,7 C 3,3 C 95 % 1005,4 hPa 0,0 l/m 0 min 0 min 104 W/m 16,1 km/h (3 Bft) 100,00 %
11.11.2023 10:56 7,0 C 7,2 C 3,3 C 95 % 1005,4 hPa 0,0 l/m 0 min 0 min 103 W/m 12,9 km/h (3 Bft) 100,00 %
11.11.2023 10:58 7,0 C 7,2 C 3,3 C 95 % 1005,4 hPa 0,0 l/m 0 min 0 min 98 W/m 12,9 km/h (3 Bft) 100,00 %
11.11.2023 11:00 7,1 C 7,2 C 3,3 C 94 % 1005,4 hPa 0,0 l/m 0 min 0 min 87 W/m 16,1 km/h (3 Bft) 100,00 %
11.11.2023 11:02 7,1 C 7,2 C 3,3 C 94 % 1005,4 hPa 0,0 l/m 0 min 0 min 77 W/m 19,3 km/h (3 Bft) 100,00 %
11.11.2023 11:04 7,1 C 7,2 C 3,3 C 94 % 1005,4 hPa 0,0 l/m 0 min 0 min 80 W/m 12,9 km/h (3 Bft) 93,62 %
11.11.2023 11:06 7,1 C 7,2 C 3,3 C 94 % 1005,4 hPa 0,0 l/m 0 min 0 min 76 W/m 12,9 km/h (3 Bft) 100,00 %
11.11.2023 11:08 7,2 C 7,2 C 3,3 C 94 % 1005,5 hPa 0,0 l/m 0 min 0 min 67 W/m 19,3 km/h (3 Bft) 100,00 %
11.11.2023 11:10 7,2 C 7,2 C 3,3 C 94 % 1005,4 hPa 0,0 l/m 0 min 0 min 66 W/m 16,1 km/h (3 Bft) 100,00 %
11.11.2023 11:12 7,3 C 7,2 C 3,3 C 94 % 1005,4 hPa 0,0 l/m 0 min 0 min 59 W/m 12,9 km/h (3 Bft) 100,00 %
11.11.2023 11:14 7,3 C 7,2 C 3,3 C 94 % 1005,5 hPa 0,0 l/m 0 min 0 min 52 W/m 19,3 km/h (3 Bft) 100,00 %
11.11.2023 11:16 7,4 C 7,2 C 3,3 C 94 % 1005,5 hPa 0,0 l/m 0 min 0 min 49 W/m 6,4 km/h (2 Bft) 97,83 %
11.11.2023 11:18 7,4 C 7,8 C 3,3 C 94 % 1005,4 hPa 0,0 l/m 0 min 0 min 49 W/m 12,9 km/h (3 Bft) 100,00 %
11.11.2023 11:20 7,5 C 7,8 C 3,3 C 94 % 1005,5 hPa 0,0 l/m 0 min 0 min 60 W/m 9,7 km/h (2 Bft) 100,00 %
11.11.2023 11:22 7,6 C 7,8 C 3,3 C 94 % 1005,5 hPa 0,0 l/m 0 min 0 min 48 W/m 16,1 km/h (3 Bft) 100,00 %
11.11.2023 11:24 7,6 C 7,8 C 3,3 C 94 % 1005,5 hPa 0,0 l/m 0 min 0 min 48 W/m 19,3 km/h (3 Bft) 97,87 %
11.11.2023 11:26 7,7 C 7,8 C 3,3 C 93 % 1005,5 hPa 0,0 l/m 0 min 0 min 42 W/m 22,5 km/h (4 Bft) 100,00 %
11.11.2023 11:28 7,7 C 7,8 C 3,3 C 93 % 1005,5 hPa 0,0 l/m 0 min 0 min 46 W/m 19,3 km/h (3 Bft) 97,87 %
11.11.2023 11:30 7,7 C 7,8 C 3,3 C 93 % 1005,5 hPa 0,0 l/m 0 min 0 min 45 W/m 19,3 km/h (3 Bft) 100,00 %
11.11.2023 11:32 7,8 C 7,8 C 3,3 C 93 % 1005,5 hPa 0,0 l/m 0 min 0 min 45 W/m 12,9 km/h (3 Bft) 100,00 %
11.11.2023 11:34 7,8 C 7,8 C 3,9 C 93 % 1005,5 hPa 0,0 l/m 0 min 0 min 45 W/m 22,5 km/h (4 Bft) 100,00 %
11.11.2023 11:36 7,9 C 7,8 C 3,9 C 93 % 1005,5 hPa 0,0 l/m 0 min 0 min 47 W/m 12,9 km/h (3 Bft) 100,00 %
11.11.2023 11:38 7,9 C 7,8 C 3,9 C 93 % 1005,5 hPa 0,0 l/m 0 min 0 min 47 W/m 12,9 km/h (3 Bft) 97,87 %
11.11.2023 11:40 8,0 C 7,8 C 3,9 C 93 % 1005,4 hPa 0,0 l/m 0 min 0 min 47 W/m 16,1 km/h (3 Bft) 97,87 %
11.11.2023 11:42 8,0 C 7,8 C 3,9 C 92 % 1005,4 hPa 0,0 l/m 0 min 0 min 49 W/m 16,1 km/h (3 Bft) 97,87 %
11.11.2023 11:44 8,1 C 7,8 C 3,9 C 92 % 1005,4 hPa 0,0 l/m 0 min 0 min 51 W/m 12,9 km/h (3 Bft) 95,65 %
11.11.2023 11:46 8,1 C 7,8 C 3,9 C 92 % 1005,5 hPa 0,0 l/m 0 min 0 min 50 W/m 9,7 km/h (2 Bft) 97,87 %
11.11.2023 11:48 8,1 C 7,8 C 3,9 C 92 % 1005,5 hPa 0,0 l/m 0 min 0 min 52 W/m 16,1 km/h (3 Bft) 97,87 %
11.11.2023 11:50 8,2 C 7,8 C 3,9 C 92 % 1005,4 hPa 0,0 l/m 0 min 0 min 51 W/m 16,1 km/h (3 Bft) 95,74 %
11.11.2023 11:52 8,2 C 7,8 C 3,9 C 91 % 1005,4 hPa 0,0 l/m 0 min 0 min 49 W/m 12,9 km/h (3 Bft) 95,74 %
11.11.2023 11:54 8,2 C 8,3 C 3,9 C 91 % 1005,4 hPa 0,0 l/m 0 min 0 min 52 W/m 16,1 km/h (3 Bft) 96,00 %
11.11.2023 11:56 8,3 C 8,3 C 3,9 C 91 % 1005,5 hPa 0,0 l/m 0 min 0 min 78 W/m 16,1 km/h (3 Bft) 95,65 %
11.11.2023 11:58 8,3 C 8,3 C 3,9 C 91 % 1005,4 hPa 0,0 l/m 0 min 0 min 75 W/m 16,1 km/h (3 Bft) 97,87 %
11.11.2023 12:00 8,3 C 8,3 C 3,9 C 91 % 1005,5 hPa 0,0 l/m 0 min 0 min 52 W/m 16,1 km/h (3 Bft) 97,87 %
11.11.2023 12:02 8,3 C 7,8 C 3,9 C 90 % 1005,5 hPa 0,0 l/m 0 min 0 min 51 W/m 19,3 km/h (3 Bft) 95,74 %
11.11.2023 12:04 8,3 C 7,8 C 3,9 C 90 % 1005,5 hPa 0,0 l/m 0 min 0 min 65 W/m 22,5 km/h (4 Bft) 97,83 %
11.11.2023 12:08 8,4 C 8,3 C 3,9 C 90 % 1005,4 hPa 0,0 l/m 0 min 0 min 65 W/m 16,1 km/h (3 Bft) 95,60 %
11.11.2023 12:10 8,5 C 8,3 C 3,9 C 90 % 1005,5 hPa 0,0 l/m 0 min 0 min 69 W/m 12,9 km/h (3 Bft) 97,87 %
11.11.2023 12:12 8,6 C 8,3 C 3,9 C 90 % 1005,4 hPa 0,0 l/m 0 min 0 min 80 W/m 16,1 km/h (3 Bft) 97,83 %
11.11.2023 12:16 8,6 C 8,3 C 3,9 C 90 % 1005,5 hPa 0,0 l/m 0 min 0 min 91 W/m 19,3 km/h (3 Bft) 96,81 %
11.11.2023 12:18 8,6 C 8,3 C 3,9 C 89 % 1005,5 hPa 0,0 l/m 0 min 0 min 118 W/m 25,7 km/h (4 Bft) 97,87 %
11.11.2023 12:20 8,6 C 8,3 C 3,9 C 89 % 1005,5 hPa 0,0 l/m 0 min 0 min 113 W/m 19,3 km/h (3 Bft) 97,87 %
11.11.2023 12:22 8,6 C 8,3 C 4,4 C 89 % 1005,5 hPa 0,0 l/m 0 min 0 min 123 W/m 12,9 km/h (3 Bft) 95,74 %
11.11.2023 12:24 8,6 C 8,3 C 4,4 C 89 % 1005,5 hPa 0,0 l/m 0 min 0 min 152 W/m 16,1 km/h (3 Bft) 97,87 %
11.11.2023 12:26 8,6 C 8,3 C 5,0 C 89 % 1005,5 hPa 0,0 l/m 0 min 0 min 157 W/m 19,3 km/h (3 Bft) 97,83 %
11.11.2023 12:28 8,6 C 8,3 C 5,0 C 89 % 1005,6 hPa 0,0 l/m 0 min 0 min 131 W/m 16,1 km/h (3 Bft) 97,87 %
11.11.2023 12:30 8,6 C 8,3 C 5,0 C 88 % 1005,5 hPa 0,0 l/m 0 min 0 min 130 W/m 19,3 km/h (3 Bft) 97,87 %
11.11.2023 12:32 8,7 C 8,3 C 5,0 C 88 % 1005,5 hPa 0,0 l/m 0 min 0 min 115 W/m 22,5 km/h (4 Bft) 97,87 %
11.11.2023 12:34 8,7 C 8,3 C 5,0 C 88 % 1005,6 hPa 0,0 l/m 0 min 0 min 123 W/m 16,1 km/h (3 Bft) 93,62 %
11.11.2023 12:36 8,7 C 8,9 C 5,6 C 88 % 1005,6 hPa 0,0 l/m 0 min 0 min 169 W/m 16,1 km/h (3 Bft) 95,74 %
11.11.2023 12:38 8,8 C 8,9 C 5,6 C 88 % 1005,5 hPa 0,0 l/m 0 min 0 min 152 W/m 19,3 km/h (3 Bft) 95,74 %
11.11.2023 12:40 8,8 C 8,9 C 5,6 C 88 % 1005,5 hPa 0,0 l/m 0 min 0 min 107 W/m 12,9 km/h (3 Bft) 95,65 %
11.11.2023 12:46 8,8 C 8,9 C 5,6 C 87 % 1005,5 hPa 0,0 l/m 0 min 0 min 144 W/m 9,7 km/h (2 Bft) 98,04 %
11.11.2023 12:48 8,8 C 8,9 C 5,6 C 87 % 1005,6 hPa 0,0 l/m 2 min 0 min 192 W/m 16,1 km/h (3 Bft) 97,83 %
11.11.2023 12:50 8,9 C 8,9 C 5,6 C 87 % 1005,6 hPa 0,0 l/m 0 min 0 min 177 W/m 12,9 km/h (3 Bft) 95,74 %
11.11.2023 12:52 8,9 C 8,9 C 5,6 C 87 % 1005,6 hPa 0,0 l/m 0 min 0 min 130 W/m 12,9 km/h (3 Bft) 96,36 %
11.11.2023 12:54 8,9 C 8,9 C 5,6 C 87 % 1005,5 hPa 0,0 l/m 0 min 0 min 126 W/m 12,9 km/h (3 Bft) 100,00 %
11.11.2023 12:56 8,9 C 8,9 C 5,6 C 87 % 1005,5 hPa 0,0 l/m 0 min 0 min 108 W/m 16,1 km/h (3 Bft) 95,56 %
11.11.2023 12:58 8,9 C 8,9 C 5,6 C 87 % 1005,6 hPa 0,0 l/m 0 min 0 min 109 W/m 12,9 km/h (3 Bft) 98,18 %
11.11.2023 13:00 8,9 C 8,9 C 5,6 C 87 % 1005,6 hPa 0,0 l/m 0 min 0 min 127 W/m 12,9 km/h (3 Bft) 97,83 %
11.11.2023 13:02 8,9 C 8,9 C 5,6 C 87 % 1005,6 hPa 0,0 l/m 0 min 0 min 144 W/m 16,1 km/h (3 Bft) 97,87 %
11.11.2023 13:04 8,9 C 8,9 C 5,6 C 87 % 1005,7 hPa 0,0 l/m 0 min 0 min 173 W/m 19,3 km/h (3 Bft) 95,45 %
11.11.2023 13:06 9,0 C 8,9 C 5,6 C 87 % 1005,7 hPa 0,0 l/m 0 min 0 min 135 W/m 16,1 km/h (3 Bft) 97,87 %
11.11.2023 13:08 9,0 C 8,9 C 5,6 C 87 % 1005,7 hPa 0,0 l/m 0 min 0 min 94 W/m 19,3 km/h (3 Bft) 100,00 %
11.11.2023 13:10 9,0 C 8,9 C 5,6 C 87 % 1005,7 hPa 0,0 l/m 0 min 0 min 123 W/m 16,1 km/h (3 Bft) 97,83 %
11.11.2023 13:12 9,1 C 8,9 C 5,6 C 87 % 1005,7 hPa 0,0 l/m 0 min 0 min 132 W/m 12,9 km/h (3 Bft) 95,74 %
11.11.2023 13:14 9,0 C 8,9 C 5,6 C 86 % 1005,7 hPa 0,0 l/m 0 min 0 min 139 W/m 12,9 km/h (3 Bft) 97,87 %
11.11.2023 13:16 8,9 C 8,9 C 5,6 C 85 % 1005,7 hPa 0,0 l/m 0 min 0 min 165 W/m 22,5 km/h (4 Bft) 97,87 %
11.11.2023 13:18 9,0 C 8,9 C 5,6 C 85 % 1005,7 hPa 0,0 l/m 2 min 0 min 422 W/m 19,3 km/h (3 Bft) 100,00 %
11.11.2023 13:20 9,0 C 9,4 C 5,6 C 84 % 1005,7 hPa 0,0 l/m 2 min 0 min 406 W/m 22,5 km/h (4 Bft) 100,00 %
11.11.2023 13:22 9,1 C 9,4 C 6,1 C 84 % 1005,8 hPa 0,0 l/m 2 min 0 min 242 W/m 12,9 km/h (3 Bft) 100,00 %
11.11.2023 13:24 9,2 C 10,0 C 6,1 C 84 % 1005,7 hPa 0,0 l/m 2 min 0 min 170 W/m 6,4 km/h (2 Bft) 100,00 %
11.11.2023 13:26 9,3 C 10,0 C 6,1 C 84 % 1005,7 hPa 0,2 l/m 2 min 0 min 268 W/m 19,3 km/h (3 Bft) 100,00 %
11.11.2023 13:28 9,3 C 10,0 C 6,1 C 84 % 1005,7 hPa 0,0 l/m 2 min 0 min 437 W/m 12,9 km/h (3 Bft) 100,00 %
11.11.2023 13:30 9,4 C 10,0 C 6,1 C 84 % 1005,7 hPa 0,0 l/m 2 min 0 min 441 W/m 16,1 km/h (3 Bft) 95,74 %
11.11.2023 13:32 9,6 C 10,6 C 6,1 C 84 % 1005,7 hPa 0,0 l/m 2 min 0 min 456 W/m 19,3 km/h (3 Bft) 100,00 %
11.11.2023 13:34 9,6 C 10,6 C 6,1 C 84 % 1005,7 hPa 0,0 l/m 2 min 0 min 460 W/m 19,3 km/h (3 Bft) 100,00 %
11.11.2023 13:36 9,7 C 11,1 C 6,1 C 84 % 1005,7 hPa 0,0 l/m 2 min 0 min 464 W/m 9,7 km/h (2 Bft) 100,00 %
11.11.2023 13:38 9,8 C 11,1 C 6,1 C 84 % 1005,6 hPa 0,0 l/m 2 min 0 min 432 W/m 25,7 km/h (4 Bft) 100,00 %
11.11.2023 13:40 9,8 C 10,6 C 6,1 C 84 % 1005,7 hPa 0,0 l/m 2 min 0 min 453 W/m 19,3 km/h (3 Bft) 93,48 %
11.11.2023 13:42 9,8 C 10,0 C 6,1 C 83 % 1005,7 hPa 0,0 l/m 2 min 0 min 374 W/m 22,5 km/h (4 Bft) 97,87 %
11.11.2023 13:44 9,7 C 10,0 C 6,1 C 83 % 1005,8 hPa 0,0 l/m 2 min 0 min 240 W/m 25,7 km/h (4 Bft) 95,74 %
11.11.2023 13:46 9,6 C 9,4 C 6,1 C 83 % 1005,8 hPa 0,0 l/m 2 min 0 min 247 W/m 16,1 km/h (3 Bft) 95,74 %
11.11.2023 13:48 9,6 C 9,4 C 6,1 C 83 % 1005,8 hPa 0,0 l/m 0 min 0 min 106 W/m 12,9 km/h (3 Bft) 97,87 %
11.11.2023 13:50 9,6 C 9,4 C 6,1 C 84 % 1005,8 hPa 0,0 l/m 0 min 0 min 118 W/m 16,1 km/h (3 Bft) 97,87 %
11.11.2023 13:52 9,6 C 10,0 C 6,1 C 84 % 1005,8 hPa 0,0 l/m 2 min 0 min 280 W/m 6,4 km/h (2 Bft) 95,74 %
11.11.2023 13:54 9,6 C 10,0 C 6,1 C 84 % 1005,8 hPa 0,0 l/m 2 min 0 min 382 W/m 12,9 km/h (3 Bft) 97,96 %
11.11.2023 13:56 9,6 C 10,6 C 6,1 C 84 % 1005,8 hPa 0,0 l/m 2 min 0 min 274 W/m 16,1 km/h (3 Bft) 97,96 %
11.11.2023 13:58 9,6 C 10,6 C 6,1 C 84 % 1005,8 hPa 0,0 l/m 2 min 0 min 203 W/m 6,4 km/h (2 Bft) 97,67 %
11.11.2023 14:00 9,7 C 10,6 C 6,1 C 84 % 1005,8 hPa 0,0 l/m 2 min 0 min 346 W/m 12,9 km/h (3 Bft) 97,87 %
11.11.2023 14:02 9,7 C 11,1 C 6,7 C 85 % 1005,8 hPa 0,0 l/m 2 min 0 min 276 W/m 12,9 km/h (3 Bft) 95,74 %
11.11.2023 14:04 9,8 C 11,7 C 6,7 C 85 % 1005,8 hPa 0,0 l/m 2 min 0 min 419 W/m 12,9 km/h (3 Bft) 98,00 %
11.11.2023 14:08 10,0 C 11,1 C 6,7 C 84 % 1005,9 hPa 0,0 l/m 4 min 0 min 360 W/m 16,1 km/h (3 Bft) 97,96 %
11.11.2023 14:09 10,0 C 11,1 C 6,7 C 83 % 1005,8 hPa 0,0 l/m 1 min 0 min 380 W/m 19,3 km/h (3 Bft) 100,00 %
11.11.2023 14:10 10,1 C 11,1 C 6,7 C 83 % 1005,8 hPa 0,0 l/m 1 min 0 min 319 W/m 19,3 km/h (3 Bft) 100,00 %
11.11.2023 14:14 10,0 C 10,0 C 6,7 C 83 % 1005,9 hPa 0,0 l/m 4 min 0 min 153 W/m 12,9 km/h (3 Bft) 97,87 %
11.11.2023 14:16 9,9 C 10,0 C 6,1 C 83 % 1005,9 hPa 0,0 l/m 0 min 0 min 83 W/m 12,9 km/h (3 Bft) 97,92 %
11.11.2023 14:18 9,9 C 9,4 C 6,1 C 83 % 1005,9 hPa 0,0 l/m 0 min 0 min 70 W/m 12,9 km/h (3 Bft) 97,87 %
11.11.2023 14:20 9,8 C 9,4 C 6,1 C 83 % 1005,9 hPa 0,0 l/m 0 min 0 min 97 W/m 12,9 km/h (3 Bft) 96,00 %
11.11.2023 14:22 9,7 C 8,9 C 6,1 C 83 % 1005,9 hPa 0,0 l/m 0 min 0 min 40 W/m 16,1 km/h (3 Bft) 97,96 %
11.11.2023 14:24 9,6 C 8,9 C 5,6 C 83 % 1005,9 hPa 0,0 l/m 0 min 0 min 65 W/m 12,9 km/h (3 Bft) 95,74 %
11.11.2023 14:26 9,5 C 8,9 C 5,6 C 83 % 1005,9 hPa 0,0 l/m 2 min 0 min 183 W/m 6,4 km/h (2 Bft) 100,00 %
11.11.2023 14:28 9,4 C 8,9 C 5,6 C 83 % 1005,9 hPa 0,0 l/m 2 min 0 min 239 W/m 12,9 km/h (3 Bft) 97,87 %
11.11.2023 14:30 9,4 C 8,9 C 5,6 C 83 % 1005,9 hPa 0,0 l/m 2 min 0 min 239 W/m 12,9 km/h (3 Bft) 95,74 %
11.11.2023 14:32 9,4 C 9,4 C 5,6 C 83 % 1005,9 hPa 0,0 l/m 0 min 0 min 99 W/m 6,4 km/h (2 Bft) 100,00 %
11.11.2023 14:34 9,4 C 9,4 C 5,6 C 84 % 1005,9 hPa 0,0 l/m 2 min 0 min 145 W/m 12,9 km/h (3 Bft) 100,00 %
11.11.2023 14:36 9,3 C 10,0 C 5,6 C 83 % 1005,9 hPa 0,0 l/m 2 min 0 min 135 W/m 19,3 km/h (3 Bft) 100,00 %
11.11.2023 14:38 9,4 C 10,6 C 5,6 C 83 % 1005,9 hPa 0,0 l/m 2 min 0 min 218 W/m 12,9 km/h (3 Bft) 98,36 %
11.11.2023 14:40 9,4 C 11,1 C 5,6 C 84 % 1006,0 hPa 0,0 l/m 2 min 0 min 233 W/m 16,1 km/h (3 Bft) 97,87 %
11.11.2023 14:42 9,4 C 10,6 C 5,6 C 84 % 1006,0 hPa 0,0 l/m 2 min 0 min 147 W/m 16,1 km/h (3 Bft) 97,87 %
11.11.2023 14:44 9,5 C 10,0 C 5,6 C 84 % 1006,0 hPa 0,0 l/m 0 min 0 min 96 W/m 12,9 km/h (3 Bft) 97,87 %
11.11.2023 14:46 9,5 C 9,4 C 5,6 C 84 % 1006,0 hPa 0,0 l/m 0 min 0 min 110 W/m 12,9 km/h (3 Bft) 97,87 %
11.11.2023 14:48 9,4 C 9,4 C 5,6 C 84 % 1006,0 hPa 0,0 l/m 0 min 0 min 90 W/m 12,9 km/h (3 Bft) 95,74 %
11.11.2023 14:50 9,4 C 9,4 C 5,6 C 84 % 1006,1 hPa 0,0 l/m 2 min 0 min 146 W/m 9,7 km/h (2 Bft) 94,55 %
11.11.2023 14:52 9,4 C 9,4 C 5,6 C 83 % 1006,1 hPa 0,0 l/m 2 min 0 min 211 W/m 16,1 km/h (3 Bft) 97,87 %
11.11.2023 14:54 9,4 C 9,4 C 5,6 C 83 % 1006,1 hPa 0,0 l/m 2 min 0 min 218 W/m 12,9 km/h (3 Bft) 97,37 %
11.11.2023 14:56 9,4 C 8,9 C 5,6 C 83 % 1006,1 hPa 0,0 l/m 2 min 0 min 121 W/m 12,9 km/h (3 Bft) 95,74 %
11.11.2023 14:58 9,4 C 8,9 C 5,6 C 83 % 1006,1 hPa 0,0 l/m 0 min 0 min 45 W/m 6,4 km/h (2 Bft) 92,86 %
11.11.2023 15:00 9,4 C 8,9 C 5,6 C 84 % 1006,2 hPa 0,0 l/m 0 min 0 min 87 W/m 9,7 km/h (2 Bft) 95,74 %
11.11.2023 15:02 9,4 C 9,4 C 5,6 C 83 % 1006,2 hPa 0,0 l/m 0 min 0 min 73 W/m 6,4 km/h (2 Bft) 95,74 %
11.11.2023 15:04 9,4 C 9,4 C 5,6 C 83 % 1006,2 hPa 0,0 l/m 0 min 0 min 75 W/m 6,4 km/h (2 Bft) 95,24 %
11.11.2023 15:08 9,6 C 9,4 C 5,6 C 84 % 1006,2 hPa 0,0 l/m 4 min 0 min 113 W/m 9,7 km/h (2 Bft) 94,62 %
11.11.2023 15:12 9,6 C 9,4 C 5,6 C 83 % 1006,2 hPa 0,0 l/m 4 min 0 min 110 W/m 12,9 km/h (3 Bft) 97,22 %
11.11.2023 15:14 9,6 C 9,4 C 5,6 C 83 % 1006,2 hPa 0,0 l/m 0 min 0 min 75 W/m 19,3 km/h (3 Bft) 93,62 %
11.11.2023 15:16 9,6 C 9,4 C 5,6 C 82 % 1006,2 hPa 0,0 l/m 0 min 0 min 62 W/m 16,1 km/h (3 Bft) 95,74 %
11.11.2023 15:18 9,6 C 9,4 C 5,6 C 82 % 1006,2 hPa 0,0 l/m 0 min 0 min 51 W/m 9,7 km/h (2 Bft) 97,87 %
11.11.2023 15:20 9,6 C 9,4 C 5,6 C 82 % 1006,2 hPa 0,0 l/m 0 min 0 min 51 W/m 6,4 km/h (2 Bft) 97,87 %
11.11.2023 15:22 9,6 C 9,4 C 5,6 C 82 % 1006,3 hPa 0,0 l/m 0 min 0 min 77 W/m 12,9 km/h (3 Bft) 97,87 %
11.11.2023 15:24 9,6 C 8,9 C 5,6 C 83 % 1006,3 hPa 0,0 l/m 0 min 0 min 44 W/m 6,4 km/h (2 Bft) 95,74 %
11.11.2023 15:26 9,6 C 8,9 C 5,6 C 83 % 1006,3 hPa 0,0 l/m 0 min 0 min 39 W/m 6,4 km/h (2 Bft) 97,87 %
11.11.2023 15:28 9,6 C 9,4 C 5,6 C 83 % 1006,3 hPa 0,0 l/m 0 min 0 min 36 W/m 16,1 km/h (3 Bft) 97,83 %
11.11.2023 15:30 9,6 C 9,4 C 5,6 C 83 % 1006,3 hPa 0,0 l/m 0 min 0 min 36 W/m 12,9 km/h (3 Bft) 95,74 %
11.11.2023 15:32 9,6 C 8,9 C 5,6 C 83 % 1006,3 hPa 0,0 l/m 0 min 0 min 35 W/m 6,4 km/h (2 Bft) 95,74 %
11.11.2023 15:34 9,6 C 8,9 C 5,6 C 83 % 1006,3 hPa 0,0 l/m 0 min 0 min 36 W/m 12,9 km/h (3 Bft) 95,92 %
11.11.2023 15:36 9,5 C 8,9 C 5,6 C 83 % 1006,3 hPa 0,0 l/m 0 min 0 min 38 W/m 12,9 km/h (3 Bft) 95,74 %
11.11.2023 15:38 9,5 C 8,9 C 5,6 C 83 % 1006,4 hPa 0,0 l/m 0 min 0 min 38 W/m 12,9 km/h (3 Bft) 95,74 %
11.11.2023 15:40 9,5 C 8,9 C 5,6 C 83 % 1006,4 hPa 0,0 l/m 0 min 0 min 29 W/m 12,9 km/h (3 Bft) 97,87 %
11.11.2023 15:42 9,4 C 8,9 C 5,6 C 83 % 1006,4 hPa 0,0 l/m 0 min 0 min 26 W/m 16,1 km/h (3 Bft) 95,74 %
11.11.2023 15:44 9,4 C 8,9 C 5,6 C 83 % 1006,4 hPa 0,0 l/m 0 min 0 min 26 W/m 19,3 km/h (3 Bft) 97,87 %
11.11.2023 15:46 9,4 C 8,9 C 5,6 C 83 % 1006,4 hPa 0,0 l/m 0 min 0 min 28 W/m 16,1 km/h (3 Bft) 97,83 %
11.11.2023 15:48 9,4 C 8,9 C 5,6 C 83 % 1006,4 hPa 0,0 l/m 0 min 0 min 27 W/m 12,9 km/h (3 Bft) 100,00 %
11.11.2023 15:50 9,3 C 8,9 C 5,6 C 83 % 1006,4 hPa 0,0 l/m 0 min 0 min 27 W/m 12,9 km/h (3 Bft) 97,87 %
11.11.2023 15:52 9,3 C 8,9 C 5,0 C 83 % 1006,4 hPa 0,0 l/m 0 min 0 min 26 W/m 12,9 km/h (3 Bft) 100,00 %
11.11.2023 15:54 9,3 C 8,3 C 5,0 C 83 % 1006,4 hPa 0,0 l/m 0 min 0 min 22 W/m 12,9 km/h (3 Bft) 100,00 %
11.11.2023 15:56 9,3 C 8,3 C 5,0 C 83 % 1006,5 hPa 0,0 l/m 0 min 0 min 22 W/m 3,2 km/h (1 Bft) 93,75 %
11.11.2023 15:58 9,2 C 8,3 C 5,0 C 84 % 1006,5 hPa 0,0 l/m 0 min 0 min 22 W/m 6,4 km/h (2 Bft) 97,78 %
11.11.2023 16:00 9,2 C 8,3 C 5,0 C 84 % 1006,5 hPa 0,0 l/m 0 min 0 min 22 W/m 6,4 km/h (2 Bft) 97,87 %
11.11.2023 16:02 9,2 C 8,3 C 5,0 C 84 % 1006,5 hPa 0,0 l/m 0 min 0 min 21 W/m 12,9 km/h (3 Bft) 95,74 %
11.11.2023 16:04 9,1 C 8,3 C 5,0 C 84 % 1006,5 hPa 0,0 l/m 0 min 0 min 24 W/m 12,9 km/h (3 Bft) 97,67 %
11.11.2023 16:08 9,1 C 8,3 C 5,0 C 85 % 1006,6 hPa 0,0 l/m 0 min 0 min 25 W/m 9,7 km/h (2 Bft) 96,08 %
11.11.2023 16:09 9,1 C 8,3 C 5,0 C 85 % 1006,6 hPa 0,0 l/m 0 min 0 min 25 W/m 6,4 km/h (2 Bft) 95,65 %
11.11.2023 16:12 8,9 C 8,3 C 5,0 C 85 % 1006,6 hPa 0,0 l/m 0 min 0 min 22 W/m 16,1 km/h (3 Bft) 98,31 %
11.11.2023 16:14 8,9 C 8,3 C 5,0 C 85 % 1006,6 hPa 0,0 l/m 0 min 0 min 21 W/m 3,2 km/h (1 Bft) 95,24 %
11.11.2023 16:16 8,9 C 8,3 C 4,4 C 85 % 1006,7 hPa 0,0 l/m 0 min 0 min 19 W/m 6,4 km/h (2 Bft) 97,83 %
11.11.2023 16:18 8,8 C 8,3 C 4,4 C 85 % 1006,7 hPa 0,0 l/m 0 min 0 min 18 W/m 6,4 km/h (2 Bft) 98,11 %
11.11.2023 16:20 8,8 C 8,3 C 4,4 C 85 % 1006,6 hPa 0,0 l/m 0 min 0 min 18 W/m 9,7 km/h (2 Bft) 95,12 %
11.11.2023 16:22 8,8 C 7,8 C 4,4 C 85 % 1006,7 hPa 0,0 l/m 0 min 0 min 16 W/m 3,2 km/h (1 Bft) 97,87 %
11.11.2023 16:24 8,8 C 7,8 C 4,4 C 85 % 1006,7 hPa 0,0 l/m 0 min 0 min 16 W/m 6,4 km/h (2 Bft) 95,74 %
11.11.2023 16:26 8,8 C 7,8 C 4,4 C 85 % 1006,6 hPa 0,0 l/m 0 min 0 min 14 W/m 6,4 km/h (2 Bft) 97,87 %
11.11.2023 16:28 8,7 C 7,8 C 4,4 C 86 % 1006,6 hPa 0,0 l/m 0 min 0 min 14 W/m 6,4 km/h (2 Bft) 100,00 %
11.11.2023 16:30 8,7 C 7,8 C 4,4 C 86 % 1006,7 hPa 0,0 l/m 0 min 0 min 12 W/m 6,4 km/h (2 Bft) 100,00 %
11.11.2023 16:32 8,7 C 7,8 C 4,4 C 86 % 1006,7 hPa 0,0 l/m 0 min 0 min 12 W/m 9,7 km/h (2 Bft) 97,83 %
11.11.2023 16:34 8,6 C 7,8 C 4,4 C 86 % 1006,6 hPa 0,0 l/m 0 min 0 min 11 W/m 6,4 km/h (2 Bft) 100,00 %
11.11.2023 16:36 8,6 C 7,8 C 4,4 C 86 % 1006,6 hPa 0,0 l/m 0 min 0 min 11 W/m 6,4 km/h (2 Bft) 100,00 %
11.11.2023 16:38 8,5 C 7,8 C 4,4 C 86 % 1006,7 hPa 0,0 l/m 0 min 0 min 10 W/m 3,2 km/h (1 Bft) 95,74 %
11.11.2023 16:40 8,5 C 7,8 C 4,4 C 86 % 1006,7 hPa 0,0 l/m 0 min 0 min 9 W/m 6,4 km/h (2 Bft) 100,00 %
11.11.2023 16:42 8,4 C 7,8 C 4,4 C 86 % 1006,7 hPa 0,0 l/m 0 min 0 min 9 W/m 19,3 km/h (3 Bft) 100,00 %
11.11.2023 16:44 8,4 C 7,2 C 4,4 C 86 % 1006,7 hPa 0,0 l/m 0 min 0 min 7 W/m 16,1 km/h (3 Bft) 97,87 %
11.11.2023 16:46 8,4 C 7,8 C 4,4 C 86 % 1006,7 hPa 0,0 l/m 0 min 0 min 7 W/m 12,9 km/h (3 Bft) 100,00 %
11.11.2023 16:48 8,3 C 7,2 C 4,4 C 87 % 1006,6 hPa 0,0 l/m 0 min 0 min 6 W/m 6,4 km/h (2 Bft) 97,83 %
11.11.2023 16:50 8,3 C 7,2 C 4,4 C 87 % 1006,6 hPa 0,0 l/m 0 min 0 min 5 W/m 6,4 km/h (2 Bft) 97,87 %
11.11.2023 16:52 8,3 C 7,2 C 4,4 C 87 % 1006,6 hPa 0,0 l/m 0 min 0 min 5 W/m 6,4 km/h (2 Bft) 97,87 %
11.11.2023 16:54 8,2 C 7,2 C 4,4 C 87 % 1006,6 hPa 0,0 l/m 0 min 0 min 0 W/m 6,4 km/h (2 Bft) 95,74 %
11.11.2023 16:56 8,2 C 7,2 C 3,9 C 87 % 1006,7 hPa 0,0 l/m 0 min 0 min 0 W/m 3,2 km/h (1 Bft) 98,11 %
11.11.2023 16:58 8,2 C 7,2 C 3,9 C 87 % 1006,7 hPa 0,0 l/m 0 min 0 min 0 W/m 3,2 km/h (1 Bft) 93,48 %
11.11.2023 17:00 8,1 C 7,2 C 3,9 C 87 % 1006,7 hPa 0,0 l/m 0 min 0 min 0 W/m 6,4 km/h (2 Bft) 97,87 %
11.11.2023 17:02 8,1 C 7,2 C 3,9 C 87 % 1006,7 hPa 0,0 l/m 0 min 0 min 0 W/m 6,4 km/h (2 Bft) 97,87 %
11.11.2023 17:04 8,1 C 7,2 C 3,9 C 87 % 1006,7 hPa 0,0 l/m 0 min 0 min 0 W/m 6,4 km/h (2 Bft) 95,74 %
11.11.2023 17:08 8,0 C 7,2 C 3,9 C 87 % 1006,8 hPa 0,0 l/m 0 min 0 min 0 W/m 16,1 km/h (3 Bft) 98,00 %
11.11.2023 17:09 8,0 C 7,2 C 3,9 C 87 % 1006,9 hPa 0,0 l/m 0 min 0 min 0 W/m 3,2 km/h (1 Bft) 100,00 %
11.11.2023 17:10 7,9 C 7,2 C 3,9 C 88 % 1006,9 hPa 0,0 l/m 0 min 0 min 0 W/m 6,4 km/h (2 Bft) 100,00 %
11.11.2023 17:14 7,9 C 7,2 C 3,9 C 88 % 1006,9 hPa 0,0 l/m 0 min 0 min 0 W/m 6,4 km/h (2 Bft) 97,87 %
11.11.2023 17:16 7,9 C 7,2 C 3,9 C 88 % 1006,9 hPa 0,0 l/m 0 min 0 min 0 W/m 3,2 km/h (1 Bft) 97,87 %
11.11.2023 17:18 7,8 C 6,7 C 3,9 C 88 % 1007,0 hPa 0,0 l/m 0 min 0 min 0 W/m 0,0 km/h (0 Bft) 97,87 %
11.11.2023 17:20 7,8 C 6,7 C 3,9 C 88 % 1006,9 hPa 0,0 l/m 0 min 0 min 0 W/m 3,2 km/h (1 Bft) 95,74 %
11.11.2023 17:22 7,8 C 6,7 C 3,3 C 88 % 1006,9 hPa 0,0 l/m 0 min 0 min 0 W/m 3,2 km/h (1 Bft) 97,83 %
11.11.2023 17:24 7,7 C 6,7 C 3,3 C 88 % 1007,0 hPa 0,0 l/m 0 min 0 min 0 W/m 6,4 km/h (2 Bft) 97,87 %
11.11.2023 17:26 7,7 C 6,7 C 3,3 C 88 % 1007,0 hPa 0,0 l/m 0 min 0 min 0 W/m 3,2 km/h (1 Bft) 97,87 %
11.11.2023 17:28 7,7 C 6,7 C 3,3 C 88 % 1007,1 hPa 0,0 l/m 0 min 0 min 0 W/m 3,2 km/h (1 Bft) 100,00 %
11.11.2023 17:30 7,6 C 6,7 C 3,3 C 88 % 1007,2 hPa 0,0 l/m 0 min 0 min 0 W/m 3,2 km/h (1 Bft) 100,00 %
11.11.2023 17:32 7,6 C 6,7 C 3,3 C 88 % 1007,2 hPa 0,0 l/m 0 min 0 min 0 W/m 6,4 km/h (2 Bft) 100,00 %
11.11.2023 17:34 7,6 C 6,7 C 3,3 C 89 % 1007,2 hPa 0,0 l/m 0 min 0 min 0 W/m 3,2 km/h (1 Bft) 97,87 %
11.11.2023 17:36 7,6 C 6,7 C 3,3 C 89 % 1007,2 hPa 0,0 l/m 0 min 0 min 0 W/m 6,4 km/h (2 Bft) 95,65 %
11.11.2023 17:38 7,6 C 6,7 C 3,3 C 89 % 1007,2 hPa 0,0 l/m 0 min 0 min 0 W/m 3,2 km/h (1 Bft) 100,00 %
11.11.2023 17:40 7,5 C 6,7 C 3,3 C 89 % 1007,3 hPa 0,0 l/m 0 min 0 min 0 W/m 3,2 km/h (1 Bft) 95,74 %
11.11.2023 17:42 7,4 C 6,7 C 3,3 C 89 % 1007,3 hPa 0,0 l/m 0 min 0 min 0 W/m 3,2 km/h (1 Bft) 97,87 %
11.11.2023 17:44 7,4 C 6,7 C 3,3 C 89 % 1007,3 hPa 0,0 l/m 0 min 0 min 0 W/m 3,2 km/h (1 Bft) 95,74 %
11.11.2023 17:46 7,4 C 6,7 C 3,3 C 89 % 1007,3 hPa 0,0 l/m 0 min 0 min 0 W/m 3,2 km/h (1 Bft) 97,87 %
11.11.2023 17:48 7,4 C 6,1 C 3,3 C 89 % 1007,3 hPa 0,0 l/m 0 min 0 min 0 W/m 3,2 km/h (1 Bft) 95,74 %
11.11.2023 17:50 7,3 C 6,1 C 3,3 C 89 % 1007,3 hPa 0,0 l/m 0 min 0 min 0 W/m 3,2 km/h (1 Bft) 97,87 %
11.11.2023 17:52 7,3 C 6,1 C 3,3 C 89 % 1007,3 hPa 0,0 l/m 0 min 0 min 0 W/m 3,2 km/h (1 Bft) 97,83 %
11.11.2023 17:54 7,3 C 6,1 C 3,3 C 89 % 1007,3 hPa 0,0 l/m 0 min 0 min 0 W/m 0,0 km/h (0 Bft) 97,92 %
11.11.2023 17:56 7,2 C 6,1 C 3,3 C 90 % 1007,3 hPa 0,0 l/m 0 min 0 min 0 W/m 0,0 km/h (0 Bft) 98,11 %
11.11.2023 17:58 7,2 C 6,1 C 2,8 C 90 % 1007,3 hPa 0,0 l/m 0 min 0 min 0 W/m 0,0 km/h (0 Bft) 97,87 %
11.11.2023 18:00 7,2 C 6,1 C 2,8 C 90 % 1007,2 hPa 0,0 l/m 0 min 0 min 0 W/m 0,0 km/h (0 Bft) 97,87 %
11.11.2023 18:02 7,1 C 6,1 C 2,8 C 90 % 1007,2 hPa 0,0 l/m 0 min 0 min 0 W/m 0,0 km/h (0 Bft) 97,83 %
11.11.2023 18:04 7,1 C 6,1 C 2,8 C 90 % 1007,2 hPa 0,0 l/m 0 min 0 min 0 W/m 0,0 km/h (0 Bft) 97,83 %
11.11.2023 18:08 7,1 C 6,1 C 2,8 C 90 % 1007,2 hPa 0,0 l/m 0 min 0 min 0 W/m 0,0 km/h (0 Bft) 97,83 %
11.11.2023 18:10 7,0 C 6,1 C 2,8 C 90 % 1007,3 hPa 0,0 l/m 0 min 0 min 0 W/m 0,0 km/h (0 Bft) 97,87 %
11.11.2023 18:12 6,9 C 5,6 C 2,8 C 90 % 1007,3 hPa 0,0 l/m 0 min 0 min 0 W/m 0,0 km/h (0 Bft) 95,74 %
11.11.2023 18:16 6,9 C 5,6 C 2,8 C 90 % 1007,3 hPa 0,0 l/m 0 min 0 min 0 W/m 0,0 km/h (0 Bft) 96,77 %
11.11.2023 18:18 6,9 C 5,6 C 2,8 C 90 % 1007,3 hPa 0,0 l/m 0 min 0 min 0 W/m 0,0 km/h (0 Bft) 97,87 %
11.11.2023 18:20 6,9 C 5,6 C 2,2 C 90 % 1007,3 hPa 0,0 l/m 0 min 0 min 0 W/m 0,0 km/h (0 Bft) 97,87 %
11.11.2023 18:22 6,8 C 5,6 C 2,2 C 90 % 1007,3 hPa 0,0 l/m 0 min 0 min 0 W/m 0,0 km/h (0 Bft) 97,87 %
11.11.2023 18:24 6,8 C 5,6 C 2,2 C 91 % 1007,4 hPa 0,0 l/m 0 min 0 min 0 W/m 0,0 km/h (0 Bft) 95,74 %
11.11.2023 18:26 6,8 C 5,6 C 2,2 C 91 % 1007,5 hPa 0,0 l/m 0 min 0 min 0 W/m 0,0 km/h (0 Bft) 97,87 %
11.11.2023 18:28 6,8 C 5,6 C 2,2 C 91 % 1007,4 hPa 0,0 l/m 0 min 0 min 0 W/m 3,2 km/h (1 Bft) 97,87 %
11.11.2023 18:30 6,7 C 5,6 C 2,2 C 91 % 1007,5 hPa 0,0 l/m 0 min 0 min 0 W/m 0,0 km/h (0 Bft) 97,83 %
11.11.2023 18:32 6,7 C 5,6 C 2,2 C 91 % 1007,4 hPa 0,0 l/m 0 min 0 min 0 W/m 3,2 km/h (1 Bft) 97,87 %
11.11.2023 18:34 6,7 C 5,6 C 2,2 C 91 % 1007,5 hPa 0,0 l/m 0 min 0 min 0 W/m 6,4 km/h (2 Bft) 97,87 %
11.11.2023 18:36 6,6 C 5,6 C 2,2 C 91 % 1007,5 hPa 0,0 l/m 0 min 0 min 0 W/m 3,2 km/h (1 Bft) 97,87 %
11.11.2023 18:38 6,6 C 5,6 C 2,2 C 91 % 1007,5 hPa 0,0 l/m 0 min 0 min 0 W/m 6,4 km/h (2 Bft) 97,87 %
11.11.2023 18:40 6,6 C 5,6 C 2,2 C 91 % 1007,5 hPa 0,0 l/m 0 min 0 min 0 W/m 3,2 km/h (1 Bft) 95,74 %
11.11.2023 18:42 6,6 C 5,6 C 2,2 C 91 % 1007,4 hPa 0,0 l/m 0 min 0 min 0 W/m 3,2 km/h (1 Bft) 97,87 %
11.11.2023 18:44 6,5 C 5,6 C 2,2 C 92 % 1007,5 hPa 0,0 l/m 0 min 0 min 0 W/m 0,0 km/h (0 Bft) 97,83 %
11.11.2023 18:46 6,5 C 5,6 C 2,2 C 92 % 1007,5 hPa 0,0 l/m 0 min 0 min 0 W/m 0,0 km/h (0 Bft) 93,62 %
11.11.2023 18:48 6,5 C 5,6 C 2,2 C 92 % 1007,6 hPa 0,0 l/m 0 min 0 min 0 W/m 0,0 km/h (0 Bft) 97,87 %
11.11.2023 18:50 6,5 C 5,6 C 2,2 C 92 % 1007,6 hPa 0,0 l/m 0 min 0 min 0 W/m 3,2 km/h (1 Bft) 97,87 %
11.11.2023 18:52 6,4 C 5,6 C 2,2 C 92 % 1007,6 hPa 0,0 l/m 0 min 0 min 0 W/m 0,0 km/h (0 Bft) 97,96 %
11.11.2023 18:54 6,4 C 5,6 C 2,2 C 92 % 1007,6 hPa 0,0 l/m 0 min 0 min 0 W/m 3,2 km/h (1 Bft) 97,87 %
11.11.2023 18:56 6,4 C 5,6 C 2,2 C 92 % 1007,6 hPa 0,0 l/m 0 min 0 min 0 W/m 3,2 km/h (1 Bft) 91,84 %
11.11.2023 18:58 6,4 C 5,6 C 2,2 C 92 % 1007,6 hPa 0,0 l/m 0 min 0 min 0 W/m 3,2 km/h (1 Bft) 97,67 %
11.11.2023 19:00 6,3 C 5,6 C 2,2 C 92 % 1007,6 hPa 0,0 l/m 0 min 0 min 0 W/m 3,2 km/h (1 Bft) 97,87 %
11.11.2023 19:02 6,3 C 5,6 C 2,2 C 92 % 1007,6 hPa 0,0 l/m 0 min 0 min 0 W/m 0,0 km/h (0 Bft) 95,74 %
11.11.2023 19:04 6,3 C 5,6 C 2,2 C 92 % 1007,6 hPa 0,0 l/m 0 min 0 min 0 W/m 3,2 km/h (1 Bft) 96,00 %
11.11.2023 19:08 6,3 C 5,6 C 2,2 C 92 % 1007,6 hPa 0,0 l/m 0 min 0 min 0 W/m 3,2 km/h (1 Bft) 96,94 %
11.11.2023 19:09 6,3 C 5,6 C 2,2 C 92 % 1007,7 hPa 0,0 l/m 0 min 0 min 0 W/m 0,0 km/h (0 Bft) 95,65 %
11.11.2023 19:10 6,3 C 5,6 C 2,2 C 92 % 1007,7 hPa 0,0 l/m 0 min 0 min 0 W/m 3,2 km/h (1 Bft) 100,00 %
11.11.2023 19:14 6,3 C 5,6 C 2,2 C 93 % 1007,7 hPa 0,0 l/m 0 min 0 min 0 W/m 3,2 km/h (1 Bft) 97,87 %
11.11.2023 19:16 6,2 C 5,6 C 2,2 C 93 % 1007,7 hPa 0,0 l/m 0 min 0 min 0 W/m 3,2 km/h (1 Bft) 97,87 %
11.11.2023 19:18 6,2 C 5,0 C 2,2 C 93 % 1007,7 hPa 0,0 l/m 0 min 0 min 0 W/m 3,2 km/h (1 Bft) 95,65 %
11.11.2023 19:20 6,2 C 5,0 C 2,2 C 93 % 1007,7 hPa 0,0 l/m 0 min 0 min 0 W/m 3,2 km/h (1 Bft) 93,62 %
11.11.2023 19:22 6,2 C 5,0 C 2,2 C 93 % 1007,7 hPa 0,0 l/m 0 min 0 min 0 W/m 3,2 km/h (1 Bft) 91,49 %
11.11.2023 19:24 6,1 C 5,0 C 2,2 C 93 % 1007,6 hPa 0,0 l/m 0 min 0 min 0 W/m 3,2 km/h (1 Bft) 95,74 %
11.11.2023 19:26 6,1 C 5,0 C 2,2 C 93 % 1007,6 hPa 0,0 l/m 0 min 0 min 0 W/m 6,4 km/h (2 Bft) 97,87 %
11.11.2023 19:28 6,1 C 5,0 C 2,2 C 93 % 1007,6 hPa 0,0 l/m 0 min 0 min 0 W/m 6,4 km/h (2 Bft) 97,96 %
11.11.2023 19:30 6,1 C 5,0 C 2,2 C 93 % 1007,6 hPa 0,0 l/m 0 min 0 min 0 W/m 3,2 km/h (1 Bft) 100,00 %
11.11.2023 19:32 6,1 C 5,0 C 2,2 C 93 % 1007,6 hPa 0,0 l/m 0 min 0 min 0 W/m 3,2 km/h (1 Bft) 100,00 %
11.11.2023 19:34 6,0 C 5,0 C 2,2 C 93 % 1007,7 hPa 0,0 l/m 0 min 0 min 0 W/m 6,4 km/h (2 Bft) 95,65 %
11.11.2023 19:36 6,0 C 5,0 C 2,2 C 93 % 1007,7 hPa 0,0 l/m 0 min 0 min 0 W/m 6,4 km/h (2 Bft) 95,74 %
11.11.2023 19:38 5,9 C 5,0 C 2,2 C 93 % 1007,7 hPa 0,0 l/m 0 min 0 min 0 W/m 6,4 km/h (2 Bft) 93,62 %
11.11.2023 19:40 5,9 C 5,0 C 2,2 C 93 % 1007,7 hPa 0,0 l/m 0 min 0 min 0 W/m 6,4 km/h (2 Bft) 95,74 %
11.11.2023 19:42 5,9 C 5,0 C 2,2 C 94 % 1007,7 hPa 0,0 l/m 0 min 0 min 0 W/m 3,2 km/h (1 Bft) 93,62 %
11.11.2023 19:44 5,9 C 5,0 C 2,2 C 94 % 1007,6 hPa 0,0 l/m 0 min 0 min 0 W/m 6,4 km/h (2 Bft) 100,00 %
11.11.2023 19:46 5,9 C 5,0 C 2,2 C 94 % 1007,6 hPa 0,0 l/m 0 min 0 min 0 W/m 6,4 km/h (2 Bft) 100,00 %
11.11.2023 19:48 5,9 C 5,0 C 2,2 C 94 % 1007,6 hPa 0,0 l/m 0 min 0 min 0 W/m 9,7 km/h (2 Bft) 97,83 %
11.11.2023 19:50 5,9 C 5,0 C 2,2 C 94 % 1007,6 hPa 0,0 l/m 0 min 0 min 0 W/m 3,2 km/h (1 Bft) 97,87 %
11.11.2023 19:52 5,9 C 5,0 C 2,2 C 94 % 1007,7 hPa 0,0 l/m 0 min 0 min 0 W/m 6,4 km/h (2 Bft) 100,00 %
11.11.2023 19:54 5,9 C 5,0 C 2,2 C 94 % 1007,6 hPa 0,0 l/m 0 min 0 min 0 W/m 12,9 km/h (3 Bft) 100,00 %
11.11.2023 19:56 5,9 C 5,0 C 2,2 C 94 % 1007,7 hPa 0,0 l/m 0 min 0 min 0 W/m 6,4 km/h (2 Bft) 98,08 %
11.11.2023 19:58 5,9 C 5,0 C 2,2 C 94 % 1007,6 hPa 0,0 l/m 0 min 0 min 0 W/m 12,9 km/h (3 Bft) 97,78 %
11.11.2023 20:00 5,9 C 5,0 C 2,2 C 94 % 1007,6 hPa 0,0 l/m 0 min 0 min 0 W/m 3,2 km/h (1 Bft) 97,87 %
11.11.2023 20:02 5,9 C 5,0 C 2,2 C 94 % 1007,6 hPa 0,0 l/m 0 min 0 min 0 W/m 6,4 km/h (2 Bft) 97,87 %
11.11.2023 20:04 5,9 C 5,0 C 2,2 C 94 % 1007,7 hPa 0,0 l/m 0 min 0 min 0 W/m 6,4 km/h (2 Bft) 100,00 %
11.11.2023 20:08 5,8 C 5,0 C 2,2 C 94 % 1007,7 hPa 0,0 l/m 0 min 0 min 0 W/m 12,9 km/h (3 Bft) 100,00 %
11.11.2023 20:10 5,8 C 5,0 C 2,2 C 94 % 1007,7 hPa 0,0 l/m 0 min 0 min 0 W/m 12,9 km/h (3 Bft) 100,00 %
11.11.2023 20:12 5,8 C 5,0 C 2,2 C 94 % 1007,8 hPa 0,0 l/m 0 min 0 min 0 W/m 6,4 km/h (2 Bft) 100,00 %
11.11.2023 20:14 5,8 C 5,0 C 2,2 C 94 % 1007,8 hPa 0,0 l/m 0 min 0 min 0 W/m 6,4 km/h (2 Bft) 97,87 %
11.11.2023 20:16 5,8 C 5,0 C 2,2 C 94 % 1007,8 hPa 0,0 l/m 0 min 0 min 0 W/m 9,7 km/h (2 Bft) 100,00 %
11.11.2023 20:18 5,8 C 5,0 C 2,2 C 94 % 1007,8 hPa 0,0 l/m 0 min 0 min 0 W/m 9,7 km/h (2 Bft) 100,00 %
11.11.2023 20:20 5,8 C 5,0 C 2,2 C 94 % 1007,8 hPa 0,0 l/m 0 min 0 min 0 W/m 9,7 km/h (2 Bft) 100,00 %
11.11.2023 20:22 5,8 C 5,0 C 2,2 C 94 % 1007,8 hPa 0,0 l/m 0 min 0 min 0 W/m 6,4 km/h (2 Bft) 100,00 %
11.11.2023 20:24 5,7 C 5,0 C 2,2 C 94 % 1007,8 hPa 0,0 l/m 0 min 0 min 0 W/m 6,4 km/h (2 Bft) 95,74 %
11.11.2023 20:26 5,7 C 5,0 C 2,2 C 94 % 1007,8 hPa 0,0 l/m 0 min 0 min 0 W/m 9,7 km/h (2 Bft) 100,00 %
11.11.2023 20:28 5,7 C 5,0 C 2,2 C 94 % 1007,8 hPa 0,0 l/m 0 min 0 min 0 W/m 9,7 km/h (2 Bft) 97,87 %
11.11.2023 20:30 5,7 C 5,0 C 2,2 C 94 % 1007,8 hPa 0,0 l/m 0 min 0 min 0 W/m 12,9 km/h (3 Bft) 100,00 %
11.11.2023 20:32 5,6 C 5,0 C 2,2 C 94 % 1007,8 hPa 0,0 l/m 0 min 0 min 0 W/m 6,4 km/h (2 Bft) 97,87 %
11.11.2023 20:34 5,6 C 4,4 C 2,2 C 94 % 1007,8 hPa 0,0 l/m 0 min 0 min 0 W/m 6,4 km/h (2 Bft) 100,00 %
11.11.2023 20:36 5,6 C 4,4 C 2,2 C 94 % 1007,8 hPa 0,0 l/m 0 min 0 min 0 W/m 9,7 km/h (2 Bft) 100,00 %
11.11.2023 20:38 5,6 C 4,4 C 2,2 C 94 % 1007,8 hPa 0,0 l/m 0 min 0 min 0 W/m 3,2 km/h (1 Bft) 100,00 %
11.11.2023 20:40 5,6 C 4,4 C 2,2 C 95 % 1007,8 hPa 0,0 l/m 0 min 0 min 0 W/m 12,9 km/h (3 Bft) 97,83 %
11.11.2023 20:42 5,6 C 4,4 C 2,2 C 95 % 1007,8 hPa 0,0 l/m 0 min 0 min 0 W/m 12,9 km/h (3 Bft) 100,00 %
11.11.2023 20:44 5,5 C 4,4 C 2,2 C 95 % 1007,8 hPa 0,0 l/m 0 min 0 min 0 W/m 6,4 km/h (2 Bft) 100,00 %
11.11.2023 20:46 5,5 C 4,4 C 2,2 C 95 % 1007,8 hPa 0,0 l/m 0 min 0 min 0 W/m 3,2 km/h (1 Bft) 100,00 %
11.11.2023 20:48 5,4 C 4,4 C 2,2 C 95 % 1007,8 hPa 0,0 l/m 0 min 0 min 0 W/m 6,4 km/h (2 Bft) 100,00 %
11.11.2023 20:50 5,4 C 4,4 C 2,2 C 95 % 1007,8 hPa 0,0 l/m 0 min 0 min 0 W/m 9,7 km/h (2 Bft) 100,00 %
11.11.2023 20:52 5,4 C 4,4 C 2,2 C 95 % 1007,8 hPa 0,0 l/m 0 min 0 min 0 W/m 16,1 km/h (3 Bft) 97,87 %
11.11.2023 20:54 5,4 C 4,4 C 2,2 C 95 % 1007,8 hPa 0,0 l/m 0 min 0 min 0 W/m 9,7 km/h (2 Bft) 100,00 %
11.11.2023 20:56 5,4 C 4,4 C 2,2 C 95 % 1007,8 hPa 0,0 l/m 0 min 0 min 0 W/m 9,7 km/h (2 Bft) 98,04 %
11.11.2023 20:58 5,4 C 4,4 C 2,2 C 95 % 1007,8 hPa 0,0 l/m 0 min 0 min 0 W/m 6,4 km/h (2 Bft) 95,35 %
11.11.2023 21:00 5,4 C 4,4 C 2,2 C 95 % 1007,8 hPa 0,0 l/m 0 min 0 min 0 W/m 6,4 km/h (2 Bft) 97,87 %
11.11.2023 21:02 5,3 C 4,4 C 2,2 C 95 % 1007,8 hPa 0,0 l/m 0 min 0 min 0 W/m 6,4 km/h (2 Bft) 95,74 %
11.11.2023 21:04 5,3 C 4,4 C 2,2 C 95 % 1007,8 hPa 0,0 l/m 0 min 0 min 0 W/m 9,7 km/h (2 Bft) 96,08 %
11.11.2023 21:08 5,3 C 4,4 C 1,7 C 95 % 1007,8 hPa 0,0 l/m 0 min 0 min 0 W/m 9,7 km/h (2 Bft) 96,84 %
11.11.2023 21:09 5,3 C 4,4 C 1,7 C 95 % 1007,8 hPa 0,0 l/m 0 min 0 min 0 W/m 12,9 km/h (3 Bft) 95,83 %
11.11.2023 21:10 5,3 C 4,4 C 1,7 C 95 % 1007,8 hPa 0,0 l/m 0 min 0 min 0 W/m 12,9 km/h (3 Bft) 100,00 %
11.11.2023 21:14 5,2 C 4,4 C 1,7 C 95 % 1007,8 hPa 0,0 l/m 0 min 0 min 0 W/m 3,2 km/h (1 Bft) 95,74 %
11.11.2023 21:16 5,2 C 4,4 C 1,7 C 95 % 1007,8 hPa 0,0 l/m 0 min 0 min 0 W/m 6,4 km/h (2 Bft) 95,74 %
11.11.2023 21:18 5,2 C 4,4 C 1,7 C 95 % 1007,8 hPa 0,0 l/m 0 min 0 min 0 W/m 3,2 km/h (1 Bft) 95,74 %
11.11.2023 21:20 5,2 C 4,4 C 1,7 C 95 % 1007,7 hPa 0,0 l/m 0 min 0 min 0 W/m 12,9 km/h (3 Bft) 95,74 %
11.11.2023 21:22 5,2 C 4,4 C 1,7 C 95 % 1007,8 hPa 0,0 l/m 0 min 0 min 0 W/m 3,2 km/h (1 Bft) 95,65 %
11.11.2023 21:24 5,2 C 4,4 C 1,7 C 95 % 1007,8 hPa 0,0 l/m 0 min 0 min 0 W/m 9,7 km/h (2 Bft) 95,74 %
11.11.2023 21:26 5,1 C 4,4 C 1,7 C 95 % 1007,8 hPa 0,0 l/m 0 min 0 min 0 W/m 3,2 km/h (1 Bft) 95,74 %
11.11.2023 21:28 5,1 C 4,4 C 1,7 C 95 % 1007,8 hPa 0,0 l/m 0 min 0 min 0 W/m 9,7 km/h (2 Bft) 97,87 %
11.11.2023 21:30 5,1 C 4,4 C 1,7 C 95 % 1007,8 hPa 0,0 l/m 0 min 0 min 0 W/m 6,4 km/h (2 Bft) 95,74 %
11.11.2023 21:32 5,1 C 4,4 C 1,7 C 95 % 1007,8 hPa 0,0 l/m 0 min 0 min 0 W/m 6,4 km/h (2 Bft) 97,87 %
11.11.2023 21:34 5,1 C 4,4 C 1,7 C 95 % 1007,7 hPa 0,0 l/m 0 min 0 min 0 W/m 6,4 km/h (2 Bft) 95,74 %
11.11.2023 21:36 5,1 C 4,4 C 1,7 C 95 % 1007,7 hPa 0,0 l/m 0 min 0 min 0 W/m 9,7 km/h (2 Bft) 97,83 %
11.11.2023 21:38 5,1 C 4,4 C 1,7 C 95 % 1007,7 hPa 0,0 l/m 0 min 0 min 0 W/m 6,4 km/h (2 Bft) 100,00 %
11.11.2023 21:40 5,1 C 4,4 C 1,7 C 95 % 1007,7 hPa 0,0 l/m 0 min 0 min 0 W/m 3,2 km/h (1 Bft) 97,87 %
11.11.2023 21:42 5,1 C 4,4 C 1,7 C 95 % 1007,6 hPa 0,0 l/m 0 min 0 min 0 W/m 6,4 km/h (2 Bft) 97,87 %
11.11.2023 21:44 5,1 C 4,4 C 1,7 C 95 % 1007,6 hPa 0,0 l/m 0 min 0 min 0 W/m 6,4 km/h (2 Bft) 97,87 %
11.11.2023 21:46 5,1 C 4,4 C 1,7 C 95 % 1007,6 hPa 0,0 l/m 0 min 0 min 0 W/m 3,2 km/h (1 Bft) 91,49 %
11.11.2023 21:48 5,0 C 4,4 C 1,7 C 95 % 1007,6 hPa 0,0 l/m 0 min 0 min 0 W/m 3,2 km/h (1 Bft) 95,74 %
11.11.2023 21:50 5,0 C 4,4 C 1,7 C 95 % 1007,6 hPa 0,0 l/m 0 min 0 min 0 W/m 6,4 km/h (2 Bft) 93,48 %
11.11.2023 21:52 5,0 C 4,4 C 1,7 C 95 % 1007,6 hPa 0,0 l/m 0 min 0 min 0 W/m 3,2 km/h (1 Bft) 95,74 %
11.11.2023 21:54 5,0 C 4,4 C 1,7 C 95 % 1007,6 hPa 0,0 l/m 0 min 0 min 0 W/m 3,2 km/h (1 Bft) 93,88 %
11.11.2023 21:56 4,9 C 4,4 C 1,7 C 95 % 1007,6 hPa 0,0 l/m 0 min 0 min 0 W/m 3,2 km/h (1 Bft) 97,87 %
11.11.2023 21:58 4,9 C 3,9 C 1,7 C 95 % 1007,5 hPa 0,0 l/m 0 min 0 min 0 W/m 3,2 km/h (1 Bft) 97,87 %
11.11.2023 22:00 4,9 C 4,4 C 1,7 C 95 % 1007,5 hPa 0,0 l/m 0 min 0 min 0 W/m 0,0 km/h (0 Bft) 93,62 %
11.11.2023 22:02 4,9 C 4,4 C 1,7 C 95 % 1007,5 hPa 0,0 l/m 0 min 0 min 0 W/m 3,2 km/h (1 Bft) 95,74 %
11.11.2023 22:04 4,9 C 4,4 C 1,7 C 95 % 1007,5 hPa 0,0 l/m 0 min 0 min 0 W/m 0,0 km/h (0 Bft) 96,15 %
11.11.2023 22:08 4,9 C 3,9 C 1,7 C 95 % 1007,5 hPa 0,0 l/m 0 min 0 min 0 W/m 6,4 km/h (2 Bft) 94,05 %
11.11.2023 22:09 4,9 C 3,9 C 1,7 C 95 % 1007,5 hPa 0,0 l/m 0 min 0 min 0 W/m 0,0 km/h (0 Bft) 95,83 %
11.11.2023 22:10 4,9 C 3,9 C 1,7 C 95 % 1007,5 hPa 0,0 l/m 0 min 0 min 0 W/m 6,4 km/h (2 Bft) 98,25 %
11.11.2023 22:14 4,9 C 3,9 C 1,7 C 95 % 1007,5 hPa 0,0 l/m 0 min 0 min 0 W/m 0,0 km/h (0 Bft) 95,74 %
11.11.2023 22:16 4,9 C 3,9 C 1,7 C 95 % 1007,5 hPa 0,0 l/m 0 min 0 min 0 W/m 0,0 km/h (0 Bft) 97,87 %
11.11.2023 22:18 4,8 C 3,9 C 1,7 C 95 % 1007,5 hPa 0,0 l/m 0 min 0 min 0 W/m 3,2 km/h (1 Bft) 97,87 %
11.11.2023 22:20 4,8 C 3,9 C 1,7 C 95 % 1007,5 hPa 0,0 l/m 0 min 0 min 0 W/m 3,2 km/h (1 Bft) 51,22 %
11.11.2023 22:22 4,8 C 3,9 C 1,7 C 95 % 1007,5 hPa 0,0 l/m 0 min 0 min 0 W/m 9,7 km/h (2 Bft) 97,83 %
11.11.2023 22:24 4,8 C 3,9 C 1,7 C 95 % 1007,5 hPa 0,0 l/m 0 min 0 min 0 W/m 3,2 km/h (1 Bft) 97,87 %
11.11.2023 22:26 4,8 C 3,9 C 1,7 C 95 % 1007,4 hPa 0,0 l/m 0 min 0 min 0 W/m 3,2 km/h (1 Bft) 97,87 %
11.11.2023 22:28 4,8 C 3,9 C 1,7 C 95 % 1007,4 hPa 0,0 l/m 0 min 0 min 0 W/m 3,2 km/h (1 Bft) 95,74 %
11.11.2023 22:30 4,8 C 3,9 C 1,7 C 95 % 1007,4 hPa 0,0 l/m 0 min 0 min 0 W/m 3,2 km/h (1 Bft) 97,87 %
11.11.2023 22:32 4,8 C 3,9 C 1,7 C 95 % 1007,3 hPa 0,0 l/m 0 min 0 min 0 W/m 6,4 km/h (2 Bft) 97,87 %
11.11.2023 22:34 4,8 C 3,9 C 1,7 C 96 % 1007,3 hPa 0,0 l/m 0 min 0 min 0 W/m 3,2 km/h (1 Bft) 97,87 %
11.11.2023 22:36 4,8 C 3,9 C 1,7 C 96 % 1007,3 hPa 0,0 l/m 0 min 0 min 0 W/m 6,4 km/h (2 Bft) 97,83 %
11.11.2023 22:38 4,8 C 3,9 C 1,7 C 96 % 1007,3 hPa 0,0 l/m 0 min 0 min 0 W/m 3,2 km/h (1 Bft) 95,74 %
11.11.2023 22:40 4,8 C 3,9 C 1,7 C 96 % 1007,4 hPa 0,0 l/m 0 min 0 min 0 W/m 6,4 km/h (2 Bft) 97,87 %
11.11.2023 22:42 4,8 C 3,9 C 1,7 C 96 % 1007,3 hPa 0,0 l/m 0 min 0 min 0 W/m 6,4 km/h (2 Bft) 95,74 %
11.11.2023 22:44 4,7 C 3,9 C 1,7 C 96 % 1007,3 hPa 0,0 l/m 0 min 0 min 0 W/m 6,4 km/h (2 Bft) 95,74 %
11.11.2023 22:46 4,7 C 3,9 C 1,7 C 96 % 1007,4 hPa 0,0 l/m 0 min 0 min 0 W/m 6,4 km/h (2 Bft) 97,87 %
11.11.2023 22:48 4,7 C 3,9 C 1,7 C 96 % 1007,5 hPa 0,0 l/m 0 min 0 min 0 W/m 3,2 km/h (1 Bft) 97,87 %
11.11.2023 22:50 4,7 C 3,9 C 1,7 C 96 % 1007,4 hPa 0,0 l/m 0 min 0 min 0 W/m 12,9 km/h (3 Bft) 97,83 %
11.11.2023 22:52 4,7 C 3,9 C 1,7 C 96 % 1007,5 hPa 0,0 l/m 0 min 0 min 0 W/m 6,4 km/h (2 Bft) 97,87 %
11.11.2023 22:54 4,7 C 3,9 C 1,7 C 96 % 1007,5 hPa 0,0 l/m 0 min 0 min 0 W/m 3,2 km/h (1 Bft) 97,87 %
11.11.2023 22:56 4,7 C 3,9 C 1,7 C 96 % 1007,5 hPa 0,0 l/m 0 min 0 min 0 W/m 9,7 km/h (2 Bft) 95,74 %
11.11.2023 22:58 4,7 C 3,9 C 1,7 C 96 % 1007,5 hPa 0,0 l/m 0 min 0 min 0 W/m 3,2 km/h (1 Bft) 95,74 %
11.11.2023 23:00 4,7 C 3,9 C 1,7 C 96 % 1007,4 hPa 0,0 l/m 0 min 0 min 0 W/m 6,4 km/h (2 Bft) 98,00 %
11.11.2023 23:02 4,7 C 3,9 C 1,7 C 96 % 1007,4 hPa 0,0 l/m 0 min 0 min 0 W/m 3,2 km/h (1 Bft) 95,74 %
11.11.2023 23:04 4,7 C 3,9 C 1,7 C 96 % 1007,4 hPa 0,0 l/m 0 min 0 min 0 W/m 0,0 km/h (0 Bft) 95,65 %
11.11.2023 23:06 4,7 C 3,9 C 1,7 C 96 % 1007,3 hPa 0,0 l/m 0 min 0 min 0 W/m 6,4 km/h (2 Bft) 100,00 %
11.11.2023 23:08 4,7 C 3,9 C 1,7 C 96 % 1007,4 hPa 0,0 l/m 0 min 0 min 0 W/m 0,0 km/h (0 Bft) 100,00 %
11.11.2023 23:10 4,7 C 3,9 C 1,7 C 96 % 1007,4 hPa 0,0 l/m 0 min 0 min 0 W/m 3,2 km/h (1 Bft) 100,00 %
11.11.2023 23:12 4,7 C 3,9 C 1,7 C 96 % 1007,4 hPa 0,0 l/m 0 min 0 min 0 W/m 6,4 km/h (2 Bft) 100,00 %
11.11.2023 23:14 4,7 C 3,9 C 1,7 C 96 % 1007,4 hPa 0,0 l/m 0 min 0 min 0 W/m 6,4 km/h (2 Bft) 100,00 %
11.11.2023 23:16 4,6 C 3,9 C 1,7 C 96 % 1007,4 hPa 0,0 l/m 0 min 0 min 0 W/m 3,2 km/h (1 Bft) 100,00 %
11.11.2023 23:18 4,6 C 3,9 C 1,7 C 96 % 1007,3 hPa 0,0 l/m 0 min 0 min 0 W/m 0,0 km/h (0 Bft) 100,00 %
11.11.2023 23:20 4,6 C 3,9 C 1,7 C 96 % 1007,3 hPa 0,0 l/m 0 min 0 min 0 W/m 3,2 km/h (1 Bft) 100,00 %
11.11.2023 23:22 4,6 C 3,9 C 1,7 C 96 % 1007,3 hPa 0,0 l/m 0 min 0 min 0 W/m 6,4 km/h (2 Bft) 97,87 %
11.11.2023 23:24 4,6 C 3,9 C 1,7 C 96 % 1007,3 hPa 0,0 l/m 0 min 0 min 0 W/m 3,2 km/h (1 Bft) 100,00 %
11.11.2023 23:26 4,6 C 3,9 C 1,7 C 96 % 1007,3 hPa 0,0 l/m 0 min 0 min 0 W/m 3,2 km/h (1 Bft) 100,00 %
11.11.2023 23:28 4,6 C 3,9 C 1,7 C 96 % 1007,2 hPa 0,0 l/m 0 min 0 min 0 W/m 3,2 km/h (1 Bft) 100,00 %
11.11.2023 23:30 4,6 C 3,9 C 1,7 C 96 % 1007,2 hPa 0,0 l/m 0 min 0 min 0 W/m 3,2 km/h (1 Bft) 100,00 %
11.11.2023 23:32 4,6 C 3,9 C 1,7 C 96 % 1007,2 hPa 0,0 l/m 0 min 0 min 0 W/m 6,4 km/h (2 Bft) 97,87 %
11.11.2023 23:34 4,6 C 3,9 C 1,7 C 96 % 1007,1 hPa 0,0 l/m 0 min 0 min 0 W/m 6,4 km/h (2 Bft) 97,87 %
11.11.2023 23:36 4,6 C 3,9 C 1,7 C 96 % 1007,2 hPa 0,0 l/m 0 min 0 min 0 W/m 3,2 km/h (1 Bft) 97,87 %
11.11.2023 23:38 4,6 C 3,9 C 1,1 C 96 % 1007,1 hPa 0,0 l/m 0 min 0 min 0 W/m 3,2 km/h (1 Bft) 97,87 %
11.11.2023 23:40 4,5 C 3,9 C 1,1 C 96 % 1007,2 hPa 0,0 l/m 0 min 0 min 0 W/m 6,4 km/h (2 Bft) 97,87 %
11.11.2023 23:42 4,5 C 3,9 C 1,1 C 96 % 1007,1 hPa 0,0 l/m 0 min 0 min 0 W/m 9,7 km/h (2 Bft) 95,65 %
11.11.2023 23:44 4,5 C 3,9 C 1,1 C 96 % 1007,1 hPa 0,0 l/m 0 min 0 min 0 W/m 9,7 km/h (2 Bft) 97,87 %
11.11.2023 23:46 4,5 C 3,9 C 1,1 C 96 % 1007,1 hPa 0,0 l/m 0 min 0 min 0 W/m 6,4 km/h (2 Bft) 95,74 %
11.11.2023 23:48 4,5 C 3,9 C 1,7 C 96 % 1007,2 hPa 0,0 l/m 0 min 0 min 0 W/m 6,4 km/h (2 Bft) 95,74 %
11.11.2023 23:50 4,5 C 3,9 C 1,7 C 96 % 1007,2 hPa 0,0 l/m 0 min 0 min 0 W/m 9,7 km/h (2 Bft) 97,87 %
11.11.2023 23:52 4,4 C 3,9 C 1,1 C 96 % 1007,2 hPa 0,0 l/m 0 min 0 min 0 W/m 6,4 km/h (2 Bft) 97,87 %
11.11.2023 23:54 4,4 C 3,9 C 1,1 C 96 % 1007,2 hPa 0,0 l/m 0 min 0 min 0 W/m 6,4 km/h (2 Bft) 97,87 %
11.11.2023 23:56 4,4 C 3,9 C 1,1 C 96 % 1007,2 hPa 0,0 l/m 0 min 0 min 0 W/m 6,4 km/h (2 Bft) 96,00 %
11.11.2023 23:58 4,4 C 3,9 C 1,1 C 96 % 1007,2 hPa 0,0 l/m 0 min 0 min 0 W/m 6,4 km/h (2 Bft) 97,78 %
_ Min-Zeit 23:52 21:58 23:38 15:16 00:00 - - - - 00:09 22:20
Minimum _ 4,4 C 3,9 C 1,1 C 82 % 998,6 hPa - - - - 0,0 km/h (0 Bft) 51,22 %
_ Max-Zeit 14:10 14:04 14:02 00:58 20:12 04:38 14:08 04:34 13:36 10:48 00:36
Maximum _ 10,1 C 11,7 C 6,7 C 98 % 1007,8 hPa 0,2 l/m 4 min 2 min 464 W/m 25,7 km/h
S-SW (4 Bft)
100,00 %
Durchschnitt _ 6,8 C 6,3 C 3,2 C 93 % 1004,7 hPa #0,4 l/m #1:28 h #14 min. 95 W/m 9,4 km/h (2 Bft) 97,28 %
© 2023 W. Hausmann